<?xml version="1.0" encoding="UTF-8" ?>
		<gpx
		 version="1.0"
		 xmlns:xsi="http://www.w3.org/2001/XMLSchema-instance"
		 xmlns="http://www.topografix.com/GPX/1/0"
		 xsi:schemaLocation="http://www.topografix.com/GPX/1/0 http://www.topografix.com/GPX/1/0/gpx.xsd"
		 creator="http://www.openrunner.com">
			<trk>
				<name>OR-7915889--Rocchetta Belbo:Salita dei Campioni - Charly Gaul</name>
			    <trkseg>
	
			<trkpt lat="44.625500" lon="8.157090">
			 <ele>314</ele>
			<time>2017-11-10T16:04:08Z</time>
			</trkpt>
		
			<trkpt lat="44.625560" lon="8.157140">
			 <ele>315</ele>
			<time>2017-11-10T16:06:08Z</time>
			</trkpt>
		
			<trkpt lat="44.625680" lon="8.157210">
			 <ele>316</ele>
			<time>2017-11-10T16:08:08Z</time>
			</trkpt>
		
			<trkpt lat="44.625810" lon="8.157280">
			 <ele>317</ele>
			<time>2017-11-10T16:10:08Z</time>
			</trkpt>
		
			<trkpt lat="44.626050" lon="8.157390">
			 <ele>321</ele>
			<time>2017-11-10T16:12:08Z</time>
			</trkpt>
		
			<trkpt lat="44.626170" lon="8.157460">
			 <ele>322</ele>
			<time>2017-11-10T16:14:08Z</time>
			</trkpt>
		
			<trkpt lat="44.626280" lon="8.157540">
			 <ele>323</ele>
			<time>2017-11-10T16:16:08Z</time>
			</trkpt>
		
			<trkpt lat="44.626350" lon="8.157590">
			 <ele>323</ele>
			<time>2017-11-10T16:18:08Z</time>
			</trkpt>
		
			<trkpt lat="44.626430" lon="8.157660">
			 <ele>324</ele>
			<time>2017-11-10T16:20:08Z</time>
			</trkpt>
		
			<trkpt lat="44.626510" lon="8.157730">
			 <ele>325</ele>
			<time>2017-11-10T16:22:08Z</time>
			</trkpt>
		
			<trkpt lat="44.626660" lon="8.157920">
			 <ele>324</ele>
			<time>2017-11-10T16:24:08Z</time>
			</trkpt>
		
			<trkpt lat="44.627340" lon="8.158890">
			 <ele>320</ele>
			<time>2017-11-10T16:26:08Z</time>
			</trkpt>
		
			<trkpt lat="44.627500" lon="8.159090">
			 <ele>319</ele>
			<time>2017-11-10T16:28:08Z</time>
			</trkpt>
		
			<trkpt lat="44.627530" lon="8.159110">
			 <ele>319</ele>
			<time>2017-11-10T16:30:08Z</time>
			</trkpt>
		
			<trkpt lat="44.627550" lon="8.159110">
			 <ele>319</ele>
			<time>2017-11-10T16:32:08Z</time>
			</trkpt>
		
			<trkpt lat="44.627590" lon="8.159110">
			 <ele>320</ele>
			<time>2017-11-10T16:34:08Z</time>
			</trkpt>
		
			<trkpt lat="44.627640" lon="8.159100">
			 <ele>321</ele>
			<time>2017-11-10T16:36:08Z</time>
			</trkpt>
		
			<trkpt lat="44.627730" lon="8.159060">
			 <ele>324</ele>
			<time>2017-11-10T16:38:08Z</time>
			</trkpt>
		
			<trkpt lat="44.627860" lon="8.158970">
			 <ele>329</ele>
			<time>2017-11-10T16:40:08Z</time>
			</trkpt>
		
			<trkpt lat="44.628010" lon="8.158860">
			 <ele>334</ele>
			<time>2017-11-10T16:42:08Z</time>
			</trkpt>
		
			<trkpt lat="44.628130" lon="8.158790">
			 <ele>338</ele>
			<time>2017-11-10T16:44:08Z</time>
			</trkpt>
		
			<trkpt lat="44.628190" lon="8.158750">
			 <ele>340</ele>
			<time>2017-11-10T16:46:08Z</time>
			</trkpt>
		
			<trkpt lat="44.628280" lon="8.158660">
			 <ele>343</ele>
			<time>2017-11-10T16:48:08Z</time>
			</trkpt>
		
			<trkpt lat="44.628460" lon="8.158460">
			 <ele>350</ele>
			<time>2017-11-10T16:50:08Z</time>
			</trkpt>
		
			<trkpt lat="44.628510" lon="8.158420">
			 <ele>351</ele>
			<time>2017-11-10T16:52:08Z</time>
			</trkpt>
		
			<trkpt lat="44.628580" lon="8.158390">
			 <ele>352</ele>
			<time>2017-11-10T16:54:08Z</time>
			</trkpt>
		
			<trkpt lat="44.628840" lon="8.158300">
			 <ele>357</ele>
			<time>2017-11-10T16:56:08Z</time>
			</trkpt>
		
			<trkpt lat="44.628890" lon="8.158260">
			 <ele>359</ele>
			<time>2017-11-10T16:58:08Z</time>
			</trkpt>
		
			<trkpt lat="44.628990" lon="8.158180">
			 <ele>362</ele>
			<time>2017-11-10T17:00:08Z</time>
			</trkpt>
		
			<trkpt lat="44.629170" lon="8.158050">
			 <ele>366</ele>
			<time>2017-11-10T17:02:08Z</time>
			</trkpt>
		
			<trkpt lat="44.629260" lon="8.157960">
			 <ele>370</ele>
			<time>2017-11-10T17:04:08Z</time>
			</trkpt>
		
			<trkpt lat="44.629270" lon="8.157950">
			 <ele>371</ele>
			<time>2017-11-10T17:06:08Z</time>
			</trkpt>
		
			<trkpt lat="44.629280" lon="8.157930">
			 <ele>371</ele>
			<time>2017-11-10T17:08:08Z</time>
			</trkpt>
		
			<trkpt lat="44.629280" lon="8.157910">
			 <ele>372</ele>
			<time>2017-11-10T17:10:08Z</time>
			</trkpt>
		
			<trkpt lat="44.629290" lon="8.157870">
			 <ele>373</ele>
			<time>2017-11-10T17:12:08Z</time>
			</trkpt>
		
			<trkpt lat="44.629280" lon="8.157850">
			 <ele>373</ele>
			<time>2017-11-10T17:14:08Z</time>
			</trkpt>
		
			<trkpt lat="44.629280" lon="8.157820">
			 <ele>373</ele>
			<time>2017-11-10T17:16:08Z</time>
			</trkpt>
		
			<trkpt lat="44.629260" lon="8.157790">
			 <ele>373</ele>
			<time>2017-11-10T17:18:08Z</time>
			</trkpt>
		
			<trkpt lat="44.629250" lon="8.157770">
			 <ele>373</ele>
			<time>2017-11-10T17:20:08Z</time>
			</trkpt>
		
			<trkpt lat="44.629230" lon="8.157760">
			 <ele>373</ele>
			<time>2017-11-10T17:22:08Z</time>
			</trkpt>
		
			<trkpt lat="44.629210" lon="8.157750">
			 <ele>373</ele>
			<time>2017-11-10T17:24:08Z</time>
			</trkpt>
		
			<trkpt lat="44.629180" lon="8.157750">
			 <ele>372</ele>
			<time>2017-11-10T17:26:08Z</time>
			</trkpt>
		
			<trkpt lat="44.629040" lon="8.157760">
			 <ele>370</ele>
			<time>2017-11-10T17:28:08Z</time>
			</trkpt>
		
			<trkpt lat="44.628830" lon="8.157750">
			 <ele>369</ele>
			<time>2017-11-10T17:30:08Z</time>
			</trkpt>
		
			<trkpt lat="44.628770" lon="8.157740">
			 <ele>369</ele>
			<time>2017-11-10T17:32:08Z</time>
			</trkpt>
		
			<trkpt lat="44.628700" lon="8.157720">
			 <ele>369</ele>
			<time>2017-11-10T17:34:08Z</time>
			</trkpt>
		
			<trkpt lat="44.628640" lon="8.157690">
			 <ele>370</ele>
			<time>2017-11-10T17:36:08Z</time>
			</trkpt>
		
			<trkpt lat="44.628520" lon="8.157610">
			 <ele>371</ele>
			<time>2017-11-10T17:38:08Z</time>
			</trkpt>
		
			<trkpt lat="44.628360" lon="8.157480">
			 <ele>374</ele>
			<time>2017-11-10T17:40:08Z</time>
			</trkpt>
		
			<trkpt lat="44.628190" lon="8.157330">
			 <ele>378</ele>
			<time>2017-11-10T17:42:08Z</time>
			</trkpt>
		
			<trkpt lat="44.627950" lon="8.157170">
			 <ele>380</ele>
			<time>2017-11-10T17:44:08Z</time>
			</trkpt>
		
			<trkpt lat="44.627860" lon="8.157130">
			 <ele>380</ele>
			<time>2017-11-10T17:46:08Z</time>
			</trkpt>
		
			<trkpt lat="44.627790" lon="8.157080">
			 <ele>380</ele>
			<time>2017-11-10T17:48:08Z</time>
			</trkpt>
		
			<trkpt lat="44.627730" lon="8.157030">
			 <ele>381</ele>
			<time>2017-11-10T17:50:08Z</time>
			</trkpt>
		
			<trkpt lat="44.627650" lon="8.156950">
			 <ele>382</ele>
			<time>2017-11-10T17:52:08Z</time>
			</trkpt>
		
			<trkpt lat="44.627520" lon="8.156800">
			 <ele>384</ele>
			<time>2017-11-10T17:54:08Z</time>
			</trkpt>
		
			<trkpt lat="44.627460" lon="8.156750">
			 <ele>385</ele>
			<time>2017-11-10T17:56:08Z</time>
			</trkpt>
		
			<trkpt lat="44.627400" lon="8.156690">
			 <ele>385</ele>
			<time>2017-11-10T17:58:08Z</time>
			</trkpt>
		
			<trkpt lat="44.627310" lon="8.156640">
			 <ele>385</ele>
			<time>2017-11-10T18:00:08Z</time>
			</trkpt>
		
			<trkpt lat="44.627060" lon="8.156510">
			 <ele>384</ele>
			<time>2017-11-10T18:02:08Z</time>
			</trkpt>
		
			<trkpt lat="44.626660" lon="8.156300">
			 <ele>380</ele>
			<time>2017-11-10T18:04:08Z</time>
			</trkpt>
		
			<trkpt lat="44.626470" lon="8.156190">
			 <ele>375</ele>
			<time>2017-11-10T18:06:08Z</time>
			</trkpt>
		
			<trkpt lat="44.626420" lon="8.156140">
			 <ele>374</ele>
			<time>2017-11-10T18:08:08Z</time>
			</trkpt>
		
			<trkpt lat="44.626390" lon="8.156080">
			 <ele>374</ele>
			<time>2017-11-10T18:10:08Z</time>
			</trkpt>
		
			<trkpt lat="44.626350" lon="8.156000">
			 <ele>375</ele>
			<time>2017-11-10T18:12:08Z</time>
			</trkpt>
		
			<trkpt lat="44.626330" lon="8.155930">
			 <ele>375</ele>
			<time>2017-11-10T18:14:08Z</time>
			</trkpt>
		
			<trkpt lat="44.626320" lon="8.155870">
			 <ele>377</ele>
			<time>2017-11-10T18:16:08Z</time>
			</trkpt>
		
			<trkpt lat="44.626320" lon="8.155780">
			 <ele>377</ele>
			<time>2017-11-10T18:18:08Z</time>
			</trkpt>
		
			<trkpt lat="44.626330" lon="8.155710">
			 <ele>377</ele>
			<time>2017-11-10T18:20:08Z</time>
			</trkpt>
		
			<trkpt lat="44.626370" lon="8.155610">
			 <ele>378</ele>
			<time>2017-11-10T18:22:08Z</time>
			</trkpt>
		
			<trkpt lat="44.626440" lon="8.155500">
			 <ele>381</ele>
			<time>2017-11-10T18:24:08Z</time>
			</trkpt>
		
			<trkpt lat="44.626600" lon="8.155190">
			 <ele>387</ele>
			<time>2017-11-10T18:26:08Z</time>
			</trkpt>
		
			<trkpt lat="44.627060" lon="8.154300">
			 <ele>395</ele>
			<time>2017-11-10T18:28:08Z</time>
			</trkpt>
		
			<trkpt lat="44.627110" lon="8.154200">
			 <ele>396</ele>
			<time>2017-11-10T18:30:08Z</time>
			</trkpt>
		
			<trkpt lat="44.627140" lon="8.154080">
			 <ele>395</ele>
			<time>2017-11-10T18:32:08Z</time>
			</trkpt>
		
			<trkpt lat="44.627160" lon="8.154000">
			 <ele>394</ele>
			<time>2017-11-10T18:34:08Z</time>
			</trkpt>
		
			<trkpt lat="44.627200" lon="8.153840">
			 <ele>392</ele>
			<time>2017-11-10T18:36:08Z</time>
			</trkpt>
		
			<trkpt lat="44.627230" lon="8.153760">
			 <ele>392</ele>
			<time>2017-11-10T18:38:08Z</time>
			</trkpt>
		
			<trkpt lat="44.627280" lon="8.153690">
			 <ele>393</ele>
			<time>2017-11-10T18:40:08Z</time>
			</trkpt>
		
			<trkpt lat="44.627330" lon="8.153640">
			 <ele>395</ele>
			<time>2017-11-10T18:42:08Z</time>
			</trkpt>
		
			<trkpt lat="44.627380" lon="8.153610">
			 <ele>397</ele>
			<time>2017-11-10T18:44:08Z</time>
			</trkpt>
		
			<trkpt lat="44.627420" lon="8.153550">
			 <ele>398</ele>
			<time>2017-11-10T18:46:08Z</time>
			</trkpt>
		
			<trkpt lat="44.627450" lon="8.153520">
			 <ele>399</ele>
			<time>2017-11-10T18:48:08Z</time>
			</trkpt>
		
			<trkpt lat="44.627460" lon="8.153480">
			 <ele>399</ele>
			<time>2017-11-10T18:50:08Z</time>
			</trkpt>
		
			<trkpt lat="44.627480" lon="8.153440">
			 <ele>399</ele>
			<time>2017-11-10T18:52:08Z</time>
			</trkpt>
		
			<trkpt lat="44.627510" lon="8.153370">
			 <ele>399</ele>
			<time>2017-11-10T18:54:08Z</time>
			</trkpt>
		
			<trkpt lat="44.627540" lon="8.153310">
			 <ele>398</ele>
			<time>2017-11-10T18:56:08Z</time>
			</trkpt>
		
			<trkpt lat="44.627580" lon="8.153150">
			 <ele>396</ele>
			<time>2017-11-10T18:58:08Z</time>
			</trkpt>
		
			<trkpt lat="44.627590" lon="8.153110">
			 <ele>395</ele>
			<time>2017-11-10T19:00:08Z</time>
			</trkpt>
		
			<trkpt lat="44.627620" lon="8.153010">
			 <ele>394</ele>
			<time>2017-11-10T19:02:08Z</time>
			</trkpt>
		
			<trkpt lat="44.627630" lon="8.152930">
			 <ele>392</ele>
			<time>2017-11-10T19:04:08Z</time>
			</trkpt>
		
			<trkpt lat="44.627650" lon="8.152860">
			 <ele>391</ele>
			<time>2017-11-10T19:06:08Z</time>
			</trkpt>
		
			<trkpt lat="44.627670" lon="8.152810">
			 <ele>391</ele>
			<time>2017-11-10T19:08:08Z</time>
			</trkpt>
		
			<trkpt lat="44.627720" lon="8.152690">
			 <ele>391</ele>
			<time>2017-11-10T19:10:08Z</time>
			</trkpt>
		
			<trkpt lat="44.627770" lon="8.152610">
			 <ele>391</ele>
			<time>2017-11-10T19:12:08Z</time>
			</trkpt>
		
			<trkpt lat="44.627800" lon="8.152570">
			 <ele>392</ele>
			<time>2017-11-10T19:14:08Z</time>
			</trkpt>
		
			<trkpt lat="44.627850" lon="8.152520">
			 <ele>394</ele>
			<time>2017-11-10T19:16:08Z</time>
			</trkpt>
		
			<trkpt lat="44.627870" lon="8.152510">
			 <ele>395</ele>
			<time>2017-11-10T19:18:08Z</time>
			</trkpt>
		
			<trkpt lat="44.627900" lon="8.152480">
			 <ele>396</ele>
			<time>2017-11-10T19:20:08Z</time>
			</trkpt>
		
			<trkpt lat="44.627950" lon="8.152440">
			 <ele>398</ele>
			<time>2017-11-10T19:22:08Z</time>
			</trkpt>
		
			<trkpt lat="44.628050" lon="8.152350">
			 <ele>401</ele>
			<time>2017-11-10T19:24:08Z</time>
			</trkpt>
		
			<trkpt lat="44.628100" lon="8.152300">
			 <ele>403</ele>
			<time>2017-11-10T19:26:08Z</time>
			</trkpt>
		
			<trkpt lat="44.628120" lon="8.152260">
			 <ele>403</ele>
			<time>2017-11-10T19:28:08Z</time>
			</trkpt>
		
			<trkpt lat="44.628140" lon="8.152230">
			 <ele>403</ele>
			<time>2017-11-10T19:30:08Z</time>
			</trkpt>
		
			<trkpt lat="44.628160" lon="8.152200">
			 <ele>403</ele>
			<time>2017-11-10T19:32:08Z</time>
			</trkpt>
		
			<trkpt lat="44.628250" lon="8.151990">
			 <ele>402</ele>
			<time>2017-11-10T19:34:08Z</time>
			</trkpt>
		
			<trkpt lat="44.628370" lon="8.151740">
			 <ele>400</ele>
			<time>2017-11-10T19:36:08Z</time>
			</trkpt>
		
			<trkpt lat="44.628430" lon="8.151620">
			 <ele>399</ele>
			<time>2017-11-10T19:38:08Z</time>
			</trkpt>
		
			<trkpt lat="44.628490" lon="8.151540">
			 <ele>400</ele>
			<time>2017-11-10T19:40:08Z</time>
			</trkpt>
		
			<trkpt lat="44.628550" lon="8.151470">
			 <ele>401</ele>
			<time>2017-11-10T19:42:08Z</time>
			</trkpt>
		
			<trkpt lat="44.628600" lon="8.151420">
			 <ele>402</ele>
			<time>2017-11-10T19:44:08Z</time>
			</trkpt>
		
			<trkpt lat="44.628670" lon="8.151380">
			 <ele>404</ele>
			<time>2017-11-10T19:46:08Z</time>
			</trkpt>
		
			<trkpt lat="44.628710" lon="8.151350">
			 <ele>405</ele>
			<time>2017-11-10T19:48:08Z</time>
			</trkpt>
		
			<trkpt lat="44.628740" lon="8.151320">
			 <ele>405</ele>
			<time>2017-11-10T19:50:08Z</time>
			</trkpt>
		
			<trkpt lat="44.628800" lon="8.151260">
			 <ele>406</ele>
			<time>2017-11-10T19:52:08Z</time>
			</trkpt>
		
			<trkpt lat="44.628940" lon="8.151080">
			 <ele>407</ele>
			<time>2017-11-10T19:54:08Z</time>
			</trkpt>
		
			<trkpt lat="44.629300" lon="8.150690">
			 <ele>410</ele>
			<time>2017-11-10T19:56:08Z</time>
			</trkpt>
		
			<trkpt lat="44.629550" lon="8.150430">
			 <ele>412</ele>
			<time>2017-11-10T19:58:08Z</time>
			</trkpt>
		
			<trkpt lat="44.629630" lon="8.150370">
			 <ele>413</ele>
			<time>2017-11-10T20:00:08Z</time>
			</trkpt>
		
			<trkpt lat="44.629680" lon="8.150340">
			 <ele>415</ele>
			<time>2017-11-10T20:02:08Z</time>
			</trkpt>
		
			<trkpt lat="44.629710" lon="8.150330">
			 <ele>416</ele>
			<time>2017-11-10T20:04:08Z</time>
			</trkpt>
		
			<trkpt lat="44.629760" lon="8.150290">
			 <ele>417</ele>
			<time>2017-11-10T20:06:08Z</time>
			</trkpt>
		
			<trkpt lat="44.629790" lon="8.150260">
			 <ele>417</ele>
			<time>2017-11-10T20:08:08Z</time>
			</trkpt>
		
			<trkpt lat="44.629810" lon="8.150230">
			 <ele>417</ele>
			<time>2017-11-10T20:10:08Z</time>
			</trkpt>
		
			<trkpt lat="44.629870" lon="8.150150">
			 <ele>417</ele>
			<time>2017-11-10T20:12:08Z</time>
			</trkpt>
		
			<trkpt lat="44.629900" lon="8.150100">
			 <ele>417</ele>
			<time>2017-11-10T20:14:08Z</time>
			</trkpt>
		
			<trkpt lat="44.629980" lon="8.150000">
			 <ele>417</ele>
			<time>2017-11-10T20:16:08Z</time>
			</trkpt>
		
			<trkpt lat="44.630050" lon="8.149940">
			 <ele>418</ele>
			<time>2017-11-10T20:18:08Z</time>
			</trkpt>
		
			<trkpt lat="44.630080" lon="8.149930">
			 <ele>418</ele>
			<time>2017-11-10T20:20:08Z</time>
			</trkpt>
		
			<trkpt lat="44.630140" lon="8.149900">
			 <ele>420</ele>
			<time>2017-11-10T20:22:08Z</time>
			</trkpt>
		
			<trkpt lat="44.630240" lon="8.149870">
			 <ele>422</ele>
			<time>2017-11-10T20:24:08Z</time>
			</trkpt>
		
			<trkpt lat="44.630360" lon="8.149830">
			 <ele>426</ele>
			<time>2017-11-10T20:26:08Z</time>
			</trkpt>
		
			<trkpt lat="44.630440" lon="8.149820">
			 <ele>428</ele>
			<time>2017-11-10T20:28:08Z</time>
			</trkpt>
		
			<trkpt lat="44.630480" lon="8.149810">
			 <ele>429</ele>
			<time>2017-11-10T20:30:08Z</time>
			</trkpt>
		
			<trkpt lat="44.630500" lon="8.149810">
			 <ele>430</ele>
			<time>2017-11-10T20:32:08Z</time>
			</trkpt>
		
			<trkpt lat="44.630560" lon="8.149790">
			 <ele>432</ele>
			<time>2017-11-10T20:34:08Z</time>
			</trkpt>
		
			<trkpt lat="44.630620" lon="8.149790">
			 <ele>434</ele>
			<time>2017-11-10T20:36:08Z</time>
			</trkpt>
		
			<trkpt lat="44.630660" lon="8.149770">
			 <ele>435</ele>
			<time>2017-11-10T20:38:08Z</time>
			</trkpt>
		
			<trkpt lat="44.630700" lon="8.149740">
			 <ele>435</ele>
			<time>2017-11-10T20:40:08Z</time>
			</trkpt>
		
			<trkpt lat="44.630730" lon="8.149710">
			 <ele>436</ele>
			<time>2017-11-10T20:42:08Z</time>
			</trkpt>
		
			<trkpt lat="44.630850" lon="8.149580">
			 <ele>435</ele>
			<time>2017-11-10T20:44:08Z</time>
			</trkpt>
		
			<trkpt lat="44.630920" lon="8.149500">
			 <ele>435</ele>
			<time>2017-11-10T20:46:08Z</time>
			</trkpt>
		
			<trkpt lat="44.631160" lon="8.149290">
			 <ele>435</ele>
			<time>2017-11-10T20:48:08Z</time>
			</trkpt>
		
			<trkpt lat="44.631280" lon="8.149220">
			 <ele>437</ele>
			<time>2017-11-10T20:50:08Z</time>
			</trkpt>
		
			<trkpt lat="44.631430" lon="8.149120">
			 <ele>440</ele>
			<time>2017-11-10T20:52:08Z</time>
			</trkpt>
		
			<trkpt lat="44.631560" lon="8.149020">
			 <ele>441</ele>
			<time>2017-11-10T20:54:08Z</time>
			</trkpt>
		
			<trkpt lat="44.631640" lon="8.148980">
			 <ele>443</ele>
			<time>2017-11-10T20:56:08Z</time>
			</trkpt>
		
			<trkpt lat="44.631670" lon="8.148970">
			 <ele>444</ele>
			<time>2017-11-10T20:58:08Z</time>
			</trkpt>
		
			<trkpt lat="44.631700" lon="8.148960">
			 <ele>445</ele>
			<time>2017-11-10T21:00:08Z</time>
			</trkpt>
		
			<trkpt lat="44.631720" lon="8.148960">
			 <ele>445</ele>
			<time>2017-11-10T21:02:08Z</time>
			</trkpt>
		
			<trkpt lat="44.631750" lon="8.148960">
			 <ele>446</ele>
			<time>2017-11-10T21:04:08Z</time>
			</trkpt>
		
			<trkpt lat="44.631780" lon="8.148950">
			 <ele>447</ele>
			<time>2017-11-10T21:06:08Z</time>
			</trkpt>
		
			<trkpt lat="44.631810" lon="8.148940">
			 <ele>448</ele>
			<time>2017-11-10T21:08:08Z</time>
			</trkpt>
		
			<trkpt lat="44.631850" lon="8.148910">
			 <ele>449</ele>
			<time>2017-11-10T21:10:08Z</time>
			</trkpt>
		
			<trkpt lat="44.631870" lon="8.148890">
			 <ele>449</ele>
			<time>2017-11-10T21:12:08Z</time>
			</trkpt>
		
			<trkpt lat="44.631880" lon="8.148870">
			 <ele>449</ele>
			<time>2017-11-10T21:14:08Z</time>
			</trkpt>
		
			<trkpt lat="44.631890" lon="8.148840">
			 <ele>448</ele>
			<time>2017-11-10T21:16:08Z</time>
			</trkpt>
		
			<trkpt lat="44.631900" lon="8.148820">
			 <ele>448</ele>
			<time>2017-11-10T21:18:08Z</time>
			</trkpt>
		
			<trkpt lat="44.631910" lon="8.148770">
			 <ele>447</ele>
			<time>2017-11-10T21:20:08Z</time>
			</trkpt>
		
			<trkpt lat="44.631910" lon="8.148730">
			 <ele>446</ele>
			<time>2017-11-10T21:22:08Z</time>
			</trkpt>
		
			<trkpt lat="44.631930" lon="8.148650">
			 <ele>444</ele>
			<time>2017-11-10T21:24:08Z</time>
			</trkpt>
		
			<trkpt lat="44.631960" lon="8.148590">
			 <ele>444</ele>
			<time>2017-11-10T21:26:08Z</time>
			</trkpt>
		
			<trkpt lat="44.632010" lon="8.148530">
			 <ele>444</ele>
			<time>2017-11-10T21:28:08Z</time>
			</trkpt>
		
			<trkpt lat="44.632140" lon="8.148410">
			 <ele>445</ele>
			<time>2017-11-10T21:30:08Z</time>
			</trkpt>
		
			<trkpt lat="44.632190" lon="8.148380">
			 <ele>446</ele>
			<time>2017-11-10T21:32:08Z</time>
			</trkpt>
		
			<trkpt lat="44.632230" lon="8.148360">
			 <ele>447</ele>
			<time>2017-11-10T21:34:08Z</time>
			</trkpt>
		
			<trkpt lat="44.632340" lon="8.148270">
			 <ele>448</ele>
			<time>2017-11-10T21:36:08Z</time>
			</trkpt>
		
			<trkpt lat="44.632450" lon="8.148150">
			 <ele>448</ele>
			<time>2017-11-10T21:38:08Z</time>
			</trkpt>
		
			<trkpt lat="44.632590" lon="8.148010">
			 <ele>449</ele>
			<time>2017-11-10T21:40:08Z</time>
			</trkpt>
		
			<trkpt lat="44.632950" lon="8.147650">
			 <ele>452</ele>
			<time>2017-11-10T21:42:08Z</time>
			</trkpt>
		
			<trkpt lat="44.633010" lon="8.147620">
			 <ele>453</ele>
			<time>2017-11-10T21:44:08Z</time>
			</trkpt>
		
			<trkpt lat="44.633050" lon="8.147600">
			 <ele>454</ele>
			<time>2017-11-10T21:46:08Z</time>
			</trkpt>
		
			<trkpt lat="44.633120" lon="8.147580">
			 <ele>456</ele>
			<time>2017-11-10T21:48:08Z</time>
			</trkpt>
		
			<trkpt lat="44.633180" lon="8.147560">
			 <ele>458</ele>
			<time>2017-11-10T21:50:08Z</time>
			</trkpt>
		
			<trkpt lat="44.633250" lon="8.147530">
			 <ele>460</ele>
			<time>2017-11-10T21:52:08Z</time>
			</trkpt>
		
			<trkpt lat="44.633280" lon="8.147510">
			 <ele>460</ele>
			<time>2017-11-10T21:54:08Z</time>
			</trkpt>
		
			<trkpt lat="44.633330" lon="8.147450">
			 <ele>461</ele>
			<time>2017-11-10T21:56:08Z</time>
			</trkpt>
		
			<trkpt lat="44.633360" lon="8.147390">
			 <ele>461</ele>
			<time>2017-11-10T21:58:08Z</time>
			</trkpt>
		
			<trkpt lat="44.633420" lon="8.147280">
			 <ele>461</ele>
			<time>2017-11-10T22:00:08Z</time>
			</trkpt>
		
			<trkpt lat="44.633460" lon="8.147190">
			 <ele>461</ele>
			<time>2017-11-10T22:02:08Z</time>
			</trkpt>
		
			<trkpt lat="44.633510" lon="8.147120">
			 <ele>461</ele>
			<time>2017-11-10T22:04:08Z</time>
			</trkpt>
		
			<trkpt lat="44.633590" lon="8.147020">
			 <ele>462</ele>
			<time>2017-11-10T22:06:08Z</time>
			</trkpt>
		
			<trkpt lat="44.633630" lon="8.146950">
			 <ele>463</ele>
			<time>2017-11-10T22:08:08Z</time>
			</trkpt>
		
			<trkpt lat="44.633660" lon="8.146890">
			 <ele>463</ele>
			<time>2017-11-10T22:10:08Z</time>
			</trkpt>
		
			<trkpt lat="44.633680" lon="8.146820">
			 <ele>462</ele>
			<time>2017-11-10T22:12:08Z</time>
			</trkpt>
		
			<trkpt lat="44.633710" lon="8.146740">
			 <ele>462</ele>
			<time>2017-11-10T22:14:08Z</time>
			</trkpt>
		
			<trkpt lat="44.633710" lon="8.146660">
			 <ele>461</ele>
			<time>2017-11-10T22:16:08Z</time>
			</trkpt>
		
			<trkpt lat="44.633720" lon="8.146610">
			 <ele>461</ele>
			<time>2017-11-10T22:18:08Z</time>
			</trkpt>
		
			<trkpt lat="44.633720" lon="8.146570">
			 <ele>460</ele>
			<time>2017-11-10T22:20:08Z</time>
			</trkpt>
		
			<trkpt lat="44.633740" lon="8.146530">
			 <ele>460</ele>
			<time>2017-11-10T22:22:08Z</time>
			</trkpt>
		
			<trkpt lat="44.633790" lon="8.146460">
			 <ele>461</ele>
			<time>2017-11-10T22:24:08Z</time>
			</trkpt>
		
			<trkpt lat="44.634050" lon="8.146130">
			 <ele>465</ele>
			<time>2017-11-10T22:26:08Z</time>
			</trkpt>
		
			<trkpt lat="44.634120" lon="8.146040">
			 <ele>466</ele>
			<time>2017-11-10T22:28:08Z</time>
			</trkpt>
		
			<trkpt lat="44.634230" lon="8.145860">
			 <ele>467</ele>
			<time>2017-11-10T22:30:08Z</time>
			</trkpt>
		
			<trkpt lat="44.634250" lon="8.145840">
			 <ele>468</ele>
			<time>2017-11-10T22:32:08Z</time>
			</trkpt>
		
			<trkpt lat="44.634270" lon="8.145820">
			 <ele>468</ele>
			<time>2017-11-10T22:34:08Z</time>
			</trkpt>
		
			<trkpt lat="44.634310" lon="8.145810">
			 <ele>469</ele>
			<time>2017-11-10T22:36:08Z</time>
			</trkpt>
		
			<trkpt lat="44.634370" lon="8.145810">
			 <ele>471</ele>
			<time>2017-11-10T22:38:08Z</time>
			</trkpt>
		
			<trkpt lat="44.634440" lon="8.145810">
			 <ele>474</ele>
			<time>2017-11-10T22:40:08Z</time>
			</trkpt>
		
			<trkpt lat="44.634510" lon="8.145810">
			 <ele>476</ele>
			<time>2017-11-10T22:42:08Z</time>
			</trkpt>
		
			<trkpt lat="44.634600" lon="8.145810">
			 <ele>479</ele>
			<time>2017-11-10T22:44:08Z</time>
			</trkpt>
		
			<trkpt lat="44.634680" lon="8.145830">
			 <ele>482</ele>
			<time>2017-11-10T22:46:08Z</time>
			</trkpt>
		
			<trkpt lat="44.634760" lon="8.145850">
			 <ele>484</ele>
			<time>2017-11-10T22:48:08Z</time>
			</trkpt>
		
			<trkpt lat="44.634780" lon="8.145850">
			 <ele>485</ele>
			<time>2017-11-10T22:50:08Z</time>
			</trkpt>
		
			<trkpt lat="44.634830" lon="8.145860">
			 <ele>487</ele>
			<time>2017-11-10T22:52:08Z</time>
			</trkpt>
		
			<trkpt lat="44.634870" lon="8.145860">
			 <ele>488</ele>
			<time>2017-11-10T22:54:08Z</time>
			</trkpt>
		
			<trkpt lat="44.634890" lon="8.145860">
			 <ele>489</ele>
			<time>2017-11-10T22:56:08Z</time>
			</trkpt>
		
			<trkpt lat="44.634910" lon="8.145860">
			 <ele>489</ele>
			<time>2017-11-10T22:58:08Z</time>
			</trkpt>
		
			<trkpt lat="44.634930" lon="8.145850">
			 <ele>490</ele>
			<time>2017-11-10T23:00:08Z</time>
			</trkpt>
		
			<trkpt lat="44.634940" lon="8.145830">
			 <ele>490</ele>
			<time>2017-11-10T23:02:08Z</time>
			</trkpt>
		
			<trkpt lat="44.634950" lon="8.145820">
			 <ele>490</ele>
			<time>2017-11-10T23:04:08Z</time>
			</trkpt>
		
			<trkpt lat="44.634960" lon="8.145790">
			 <ele>491</ele>
			<time>2017-11-10T23:06:08Z</time>
			</trkpt>
		
			<trkpt lat="44.634970" lon="8.145750">
			 <ele>491</ele>
			<time>2017-11-10T23:08:08Z</time>
			</trkpt>
		
			<trkpt lat="44.634970" lon="8.145680">
			 <ele>492</ele>
			<time>2017-11-10T23:10:08Z</time>
			</trkpt>
		
			<trkpt lat="44.634950" lon="8.145590">
			 <ele>492</ele>
			<time>2017-11-10T23:12:08Z</time>
			</trkpt>
		
			<trkpt lat="44.634900" lon="8.145360">
			 <ele>491</ele>
			<time>2017-11-10T23:14:08Z</time>
			</trkpt>
		
			<trkpt lat="44.634830" lon="8.145060">
			 <ele>489</ele>
			<time>2017-11-10T23:16:08Z</time>
			</trkpt>
		
			<trkpt lat="44.634800" lon="8.144930">
			 <ele>487</ele>
			<time>2017-11-10T23:18:08Z</time>
			</trkpt>
		
			<trkpt lat="44.634780" lon="8.144850">
			 <ele>487</ele>
			<time>2017-11-10T23:20:08Z</time>
			</trkpt>
		
			<trkpt lat="44.634770" lon="8.144710">
			 <ele>486</ele>
			<time>2017-11-10T23:22:08Z</time>
			</trkpt>
		
			<trkpt lat="44.634790" lon="8.144500">
			 <ele>488</ele>
			<time>2017-11-10T23:24:08Z</time>
			</trkpt>
		
			<trkpt lat="44.634810" lon="8.144260">
			 <ele>489</ele>
			<time>2017-11-10T23:26:08Z</time>
			</trkpt>
		
			<trkpt lat="44.634830" lon="8.144070">
			 <ele>489</ele>
			<time>2017-11-10T23:28:08Z</time>
			</trkpt>
		
			<trkpt lat="44.634850" lon="8.143960">
			 <ele>489</ele>
			<time>2017-11-10T23:30:08Z</time>
			</trkpt>
		
			<trkpt lat="44.634900" lon="8.143830">
			 <ele>490</ele>
			<time>2017-11-10T23:32:08Z</time>
			</trkpt>
		
			<trkpt lat="44.635030" lon="8.143540">
			 <ele>494</ele>
			<time>2017-11-10T23:34:08Z</time>
			</trkpt>
		
			<trkpt lat="44.635120" lon="8.143340">
			 <ele>495</ele>
			<time>2017-11-10T23:36:08Z</time>
			</trkpt>
		
			<trkpt lat="44.635170" lon="8.143230">
			 <ele>494</ele>
			<time>2017-11-10T23:38:08Z</time>
			</trkpt>
		
			<trkpt lat="44.635210" lon="8.143160">
			 <ele>493</ele>
			<time>2017-11-10T23:40:08Z</time>
			</trkpt>
		
			<trkpt lat="44.635250" lon="8.143070">
			 <ele>493</ele>
			<time>2017-11-10T23:42:08Z</time>
			</trkpt>
		
			<trkpt lat="44.635280" lon="8.143000">
			 <ele>492</ele>
			<time>2017-11-10T23:44:08Z</time>
			</trkpt>
		
			<trkpt lat="44.635310" lon="8.142960">
			 <ele>492</ele>
			<time>2017-11-10T23:46:08Z</time>
			</trkpt>
		
			<trkpt lat="44.635340" lon="8.142910">
			 <ele>492</ele>
			<time>2017-11-10T23:48:08Z</time>
			</trkpt>
		
			<trkpt lat="44.635380" lon="8.142870">
			 <ele>492</ele>
			<time>2017-11-10T23:50:08Z</time>
			</trkpt>
		
			<trkpt lat="44.635420" lon="8.142840">
			 <ele>492</ele>
			<time>2017-11-10T23:52:08Z</time>
			</trkpt>
		
			<trkpt lat="44.635460" lon="8.142830">
			 <ele>493</ele>
			<time>2017-11-10T23:54:08Z</time>
			</trkpt>
		
			<trkpt lat="44.635490" lon="8.142830">
			 <ele>494</ele>
			<time>2017-11-10T23:56:08Z</time>
			</trkpt>
		
			<trkpt lat="44.635520" lon="8.142830">
			 <ele>495</ele>
			<time>2017-11-10T23:58:08Z</time>
			</trkpt>
		
			<trkpt lat="44.635560" lon="8.142840">
			 <ele>496</ele>
			<time>2017-11-11T00:00:08Z</time>
			</trkpt>
		
			<trkpt lat="44.635600" lon="8.142860">
			 <ele>498</ele>
			<time>2017-11-11T00:02:08Z</time>
			</trkpt>
		
			<trkpt lat="44.635630" lon="8.142880">
			 <ele>499</ele>
			<time>2017-11-11T00:04:08Z</time>
			</trkpt>
		
			<trkpt lat="44.635660" lon="8.142920">
			 <ele>501</ele>
			<time>2017-11-11T00:06:08Z</time>
			</trkpt>
		
			<trkpt lat="44.635700" lon="8.142950">
			 <ele>503</ele>
			<time>2017-11-11T00:08:08Z</time>
			</trkpt>
		
			<trkpt lat="44.635750" lon="8.142990">
			 <ele>505</ele>
			<time>2017-11-11T00:10:08Z</time>
			</trkpt>
		
			<trkpt lat="44.635800" lon="8.143010">
			 <ele>507</ele>
			<time>2017-11-11T00:12:08Z</time>
			</trkpt>
		
			<trkpt lat="44.635850" lon="8.143030">
			 <ele>508</ele>
			<time>2017-11-11T00:14:08Z</time>
			</trkpt>
		
			<trkpt lat="44.635940" lon="8.143050">
			 <ele>510</ele>
			<time>2017-11-11T00:16:08Z</time>
			</trkpt>
		
			<trkpt lat="44.636020" lon="8.143060">
			 <ele>512</ele>
			<time>2017-11-11T00:18:08Z</time>
			</trkpt>
		
			<trkpt lat="44.636080" lon="8.143080">
			 <ele>513</ele>
			<time>2017-11-11T00:20:08Z</time>
			</trkpt>
		
			<trkpt lat="44.636130" lon="8.143090">
			 <ele>514</ele>
			<time>2017-11-11T00:22:08Z</time>
			</trkpt>
		
			<trkpt lat="44.636190" lon="8.143130">
			 <ele>516</ele>
			<time>2017-11-11T00:24:08Z</time>
			</trkpt>
		
			<trkpt lat="44.636250" lon="8.143160">
			 <ele>517</ele>
			<time>2017-11-11T00:26:08Z</time>
			</trkpt>
		
			<trkpt lat="44.636310" lon="8.143210">
			 <ele>519</ele>
			<time>2017-11-11T00:28:08Z</time>
			</trkpt>
		
			<trkpt lat="44.636390" lon="8.143270">
			 <ele>520</ele>
			<time>2017-11-11T00:30:08Z</time>
			</trkpt>
		
			<trkpt lat="44.636430" lon="8.143300">
			 <ele>521</ele>
			<time>2017-11-11T00:32:08Z</time>
			</trkpt>
		
			<trkpt lat="44.636460" lon="8.143320">
			 <ele>522</ele>
			<time>2017-11-11T00:34:08Z</time>
			</trkpt>
		
			<trkpt lat="44.636490" lon="8.143340">
			 <ele>522</ele>
			<time>2017-11-11T00:36:08Z</time>
			</trkpt>
		
			<trkpt lat="44.636520" lon="8.143340">
			 <ele>523</ele>
			<time>2017-11-11T00:38:08Z</time>
			</trkpt>
		
			<trkpt lat="44.636540" lon="8.143340">
			 <ele>523</ele>
			<time>2017-11-11T00:40:08Z</time>
			</trkpt>
		
			<trkpt lat="44.636570" lon="8.143330">
			 <ele>523</ele>
			<time>2017-11-11T00:42:08Z</time>
			</trkpt>
		
			<trkpt lat="44.636600" lon="8.143310">
			 <ele>523</ele>
			<time>2017-11-11T00:44:08Z</time>
			</trkpt>
		
			<trkpt lat="44.636690" lon="8.143280">
			 <ele>524</ele>
			<time>2017-11-11T00:46:08Z</time>
			</trkpt>
		
			<trkpt lat="44.636730" lon="8.143250">
			 <ele>525</ele>
			<time>2017-11-11T00:48:08Z</time>
			</trkpt>
		
			<trkpt lat="44.636760" lon="8.143240">
			 <ele>526</ele>
			<time>2017-11-11T00:50:08Z</time>
			</trkpt>
		
			<trkpt lat="44.636790" lon="8.143220">
			 <ele>527</ele>
			<time>2017-11-11T00:52:08Z</time>
			</trkpt>
		
			<trkpt lat="44.636830" lon="8.143210">
			 <ele>528</ele>
			<time>2017-11-11T00:54:08Z</time>
			</trkpt>
		
			<trkpt lat="44.636850" lon="8.143200">
			 <ele>528</ele>
			<time>2017-11-11T00:56:08Z</time>
			</trkpt>
		
			<trkpt lat="44.636880" lon="8.143200">
			 <ele>529</ele>
			<time>2017-11-11T00:58:08Z</time>
			</trkpt>
		
			<trkpt lat="44.636910" lon="8.143200">
			 <ele>530</ele>
			<time>2017-11-11T01:00:08Z</time>
			</trkpt>
		
			<trkpt lat="44.636950" lon="8.143200">
			 <ele>531</ele>
			<time>2017-11-11T01:02:08Z</time>
			</trkpt>
		
			<trkpt lat="44.637000" lon="8.143200">
			 <ele>533</ele>
			<time>2017-11-11T01:04:08Z</time>
			</trkpt>
		
			<trkpt lat="44.637030" lon="8.143210">
			 <ele>534</ele>
			<time>2017-11-11T01:06:08Z</time>
			</trkpt>
		
			<trkpt lat="44.637050" lon="8.143200">
			 <ele>534</ele>
			<time>2017-11-11T01:08:08Z</time>
			</trkpt>
		
			<trkpt lat="44.637080" lon="8.143200">
			 <ele>535</ele>
			<time>2017-11-11T01:10:08Z</time>
			</trkpt>
		
			<trkpt lat="44.637110" lon="8.143180">
			 <ele>536</ele>
			<time>2017-11-11T01:12:08Z</time>
			</trkpt>
		
			<trkpt lat="44.637140" lon="8.143160">
			 <ele>537</ele>
			<time>2017-11-11T01:14:08Z</time>
			</trkpt>
		
			<trkpt lat="44.637180" lon="8.143140">
			 <ele>538</ele>
			<time>2017-11-11T01:16:08Z</time>
			</trkpt>
		
			<trkpt lat="44.637220" lon="8.143110">
			 <ele>539</ele>
			<time>2017-11-11T01:18:08Z</time>
			</trkpt>
		
			<trkpt lat="44.637250" lon="8.143080">
			 <ele>540</ele>
			<time>2017-11-11T01:20:08Z</time>
			</trkpt>
		
			<trkpt lat="44.637280" lon="8.143050">
			 <ele>541</ele>
			<time>2017-11-11T01:22:08Z</time>
			</trkpt>
		
			<trkpt lat="44.637300" lon="8.143030">
			 <ele>541</ele>
			<time>2017-11-11T01:24:08Z</time>
			</trkpt>
		
			<trkpt lat="44.637330" lon="8.142990">
			 <ele>542</ele>
			<time>2017-11-11T01:26:08Z</time>
			</trkpt>
		
			<trkpt lat="44.637360" lon="8.142960">
			 <ele>543</ele>
			<time>2017-11-11T01:28:08Z</time>
			</trkpt>
		
			<trkpt lat="44.637370" lon="8.142930">
			 <ele>543</ele>
			<time>2017-11-11T01:30:08Z</time>
			</trkpt>
		
			<trkpt lat="44.637400" lon="8.142890">
			 <ele>544</ele>
			<time>2017-11-11T01:32:08Z</time>
			</trkpt>
		
			<trkpt lat="44.637410" lon="8.142870">
			 <ele>545</ele>
			<time>2017-11-11T01:34:08Z</time>
			</trkpt>
		
			<trkpt lat="44.637430" lon="8.142850">
			 <ele>545</ele>
			<time>2017-11-11T01:36:08Z</time>
			</trkpt>
		
			<trkpt lat="44.637460" lon="8.142850">
			 <ele>546</ele>
			<time>2017-11-11T01:38:08Z</time>
			</trkpt>
		
			<trkpt lat="44.637490" lon="8.142860">
			 <ele>547</ele>
			<time>2017-11-11T01:40:08Z</time>
			</trkpt>
		
			<trkpt lat="44.637510" lon="8.142870">
			 <ele>548</ele>
			<time>2017-11-11T01:42:08Z</time>
			</trkpt>
		
			<trkpt lat="44.637530" lon="8.142880">
			 <ele>549</ele>
			<time>2017-11-11T01:44:08Z</time>
			</trkpt>
		
			<trkpt lat="44.637550" lon="8.142900">
			 <ele>549</ele>
			<time>2017-11-11T01:46:08Z</time>
			</trkpt>
		
			<trkpt lat="44.637580" lon="8.142940">
			 <ele>550</ele>
			<time>2017-11-11T01:48:08Z</time>
			</trkpt>
		
			<trkpt lat="44.637590" lon="8.142960">
			 <ele>550</ele>
			<time>2017-11-11T01:50:08Z</time>
			</trkpt>
		
			<trkpt lat="44.637620" lon="8.143000">
			 <ele>551</ele>
			<time>2017-11-11T01:52:08Z</time>
			</trkpt>
		
			<trkpt lat="44.637630" lon="8.143050">
			 <ele>551</ele>
			<time>2017-11-11T01:54:08Z</time>
			</trkpt>
		
			<trkpt lat="44.637630" lon="8.143080">
			 <ele>551</ele>
			<time>2017-11-11T01:56:08Z</time>
			</trkpt>
		
			<trkpt lat="44.637640" lon="8.143120">
			 <ele>552</ele>
			<time>2017-11-11T01:58:08Z</time>
			</trkpt>
		
			<trkpt lat="44.637630" lon="8.143180">
			 <ele>551</ele>
			<time>2017-11-11T02:00:08Z</time>
			</trkpt>
		
			<trkpt lat="44.637620" lon="8.143230">
			 <ele>551</ele>
			<time>2017-11-11T02:02:08Z</time>
			</trkpt>
		
			<trkpt lat="44.637560" lon="8.143350">
			 <ele>549</ele>
			<time>2017-11-11T02:04:08Z</time>
			</trkpt>
		
			<trkpt lat="44.637510" lon="8.143460">
			 <ele>550</ele>
			<time>2017-11-11T02:06:08Z</time>
			</trkpt>
		
			<trkpt lat="44.637470" lon="8.143560">
			 <ele>551</ele>
			<time>2017-11-11T02:08:08Z</time>
			</trkpt>
		
			<trkpt lat="44.637440" lon="8.143640">
			 <ele>552</ele>
			<time>2017-11-11T02:10:08Z</time>
			</trkpt>
		
			<trkpt lat="44.637360" lon="8.143770">
			 <ele>553</ele>
			<time>2017-11-11T02:12:08Z</time>
			</trkpt>
		
			<trkpt lat="44.637300" lon="8.143870">
			 <ele>554</ele>
			<time>2017-11-11T02:14:08Z</time>
			</trkpt>
		
			<trkpt lat="44.637180" lon="8.144010">
			 <ele>554</ele>
			<time>2017-11-11T02:16:08Z</time>
			</trkpt>
		
			<trkpt lat="44.637140" lon="8.144060">
			 <ele>555</ele>
			<time>2017-11-11T02:18:08Z</time>
			</trkpt>
		
			<trkpt lat="44.637110" lon="8.144090">
			 <ele>555</ele>
			<time>2017-11-11T02:20:08Z</time>
			</trkpt>
		
			<trkpt lat="44.637080" lon="8.144130">
			 <ele>555</ele>
			<time>2017-11-11T02:22:08Z</time>
			</trkpt>
		
			<trkpt lat="44.637060" lon="8.144150">
			 <ele>555</ele>
			<time>2017-11-11T02:24:08Z</time>
			</trkpt>
		
			<trkpt lat="44.637060" lon="8.144170">
			 <ele>556</ele>
			<time>2017-11-11T02:26:08Z</time>
			</trkpt>
		
			<trkpt lat="44.637060" lon="8.144190">
			 <ele>556</ele>
			<time>2017-11-11T02:28:08Z</time>
			</trkpt>
		
			<trkpt lat="44.637060" lon="8.144210">
			 <ele>557</ele>
			<time>2017-11-11T02:30:08Z</time>
			</trkpt>
		
			<trkpt lat="44.637070" lon="8.144220">
			 <ele>557</ele>
			<time>2017-11-11T02:32:08Z</time>
			</trkpt>
		
			<trkpt lat="44.637080" lon="8.144230">
			 <ele>558</ele>
			<time>2017-11-11T02:34:08Z</time>
			</trkpt>
		
			<trkpt lat="44.637100" lon="8.144230">
			 <ele>558</ele>
			<time>2017-11-11T02:36:08Z</time>
			</trkpt>
		
			<trkpt lat="44.637120" lon="8.144230">
			 <ele>558</ele>
			<time>2017-11-11T02:38:08Z</time>
			</trkpt>
		
			<trkpt lat="44.637160" lon="8.144220">
			 <ele>559</ele>
			<time>2017-11-11T02:40:08Z</time>
			</trkpt>
		
			<trkpt lat="44.637210" lon="8.144190">
			 <ele>559</ele>
			<time>2017-11-11T02:42:08Z</time>
			</trkpt>
		
			<trkpt lat="44.637270" lon="8.144150">
			 <ele>560</ele>
			<time>2017-11-11T02:44:08Z</time>
			</trkpt>
		
			<trkpt lat="44.637340" lon="8.144110">
			 <ele>560</ele>
			<time>2017-11-11T02:46:08Z</time>
			</trkpt>
		
			<trkpt lat="44.637420" lon="8.144050">
			 <ele>561</ele>
			<time>2017-11-11T02:48:08Z</time>
			</trkpt>
		
			<trkpt lat="44.637470" lon="8.144000">
			 <ele>561</ele>
			<time>2017-11-11T02:50:08Z</time>
			</trkpt>
		
			<trkpt lat="44.637510" lon="8.143960">
			 <ele>561</ele>
			<time>2017-11-11T02:52:08Z</time>
			</trkpt>
		
			<trkpt lat="44.637560" lon="8.143900">
			 <ele>561</ele>
			<time>2017-11-11T02:54:08Z</time>
			</trkpt>
		
			<trkpt lat="44.637600" lon="8.143840">
			 <ele>561</ele>
			<time>2017-11-11T02:56:08Z</time>
			</trkpt>
		
			<trkpt lat="44.637640" lon="8.143790">
			 <ele>561</ele>
			<time>2017-11-11T02:58:08Z</time>
			</trkpt>
		
			<trkpt lat="44.637690" lon="8.143730">
			 <ele>561</ele>
			<time>2017-11-11T03:00:08Z</time>
			</trkpt>
		
			<trkpt lat="44.637720" lon="8.143710">
			 <ele>561</ele>
			<time>2017-11-11T03:02:08Z</time>
			</trkpt>
		
			<trkpt lat="44.637770" lon="8.143690">
			 <ele>562</ele>
			<time>2017-11-11T03:04:08Z</time>
			</trkpt>
		
			<trkpt lat="44.637820" lon="8.143690">
			 <ele>563</ele>
			<time>2017-11-11T03:06:08Z</time>
			</trkpt>
		
			<trkpt lat="44.637880" lon="8.143690">
			 <ele>565</ele>
			<time>2017-11-11T03:08:08Z</time>
			</trkpt>
		
			<trkpt lat="44.637960" lon="8.143680">
			 <ele>567</ele>
			<time>2017-11-11T03:10:08Z</time>
			</trkpt>
		
			<trkpt lat="44.638080" lon="8.143650">
			 <ele>570</ele>
			<time>2017-11-11T03:12:08Z</time>
			</trkpt>
		
			<trkpt lat="44.638170" lon="8.143620">
			 <ele>572</ele>
			<time>2017-11-11T03:14:08Z</time>
			</trkpt>
		
			<trkpt lat="44.638220" lon="8.143590">
			 <ele>572</ele>
			<time>2017-11-11T03:16:08Z</time>
			</trkpt>
		
			<trkpt lat="44.638280" lon="8.143550">
			 <ele>573</ele>
			<time>2017-11-11T03:18:08Z</time>
			</trkpt>
		
			<trkpt lat="44.638340" lon="8.143500">
			 <ele>574</ele>
			<time>2017-11-11T03:20:08Z</time>
			</trkpt>
		
			<trkpt lat="44.638380" lon="8.143420">
			 <ele>574</ele>
			<time>2017-11-11T03:22:08Z</time>
			</trkpt>
		
			<trkpt lat="44.638400" lon="8.143360">
			 <ele>574</ele>
			<time>2017-11-11T03:24:08Z</time>
			</trkpt>
		
			<trkpt lat="44.638420" lon="8.143270">
			 <ele>575</ele>
			<time>2017-11-11T03:26:08Z</time>
			</trkpt>
		
			<trkpt lat="44.638420" lon="8.143220">
			 <ele>575</ele>
			<time>2017-11-11T03:28:08Z</time>
			</trkpt>
		
			<trkpt lat="44.638420" lon="8.143150">
			 <ele>575</ele>
			<time>2017-11-11T03:30:08Z</time>
			</trkpt>
		
			<trkpt lat="44.638420" lon="8.143110">
			 <ele>576</ele>
			<time>2017-11-11T03:32:08Z</time>
			</trkpt>
		
			<trkpt lat="44.638410" lon="8.143070">
			 <ele>576</ele>
			<time>2017-11-11T03:34:08Z</time>
			</trkpt>
		
			<trkpt lat="44.638380" lon="8.143010">
			 <ele>575</ele>
			<time>2017-11-11T03:36:08Z</time>
			</trkpt>
		
			<trkpt lat="44.638340" lon="8.142920">
			 <ele>574</ele>
			<time>2017-11-11T03:38:08Z</time>
			</trkpt>
		
			<trkpt lat="44.638300" lon="8.142840">
			 <ele>573</ele>
			<time>2017-11-11T03:40:08Z</time>
			</trkpt>
		
			<trkpt lat="44.638230" lon="8.142700">
			 <ele>572</ele>
			<time>2017-11-11T03:42:08Z</time>
			</trkpt>
		
			<trkpt lat="44.638150" lon="8.142560">
			 <ele>570</ele>
			<time>2017-11-11T03:44:08Z</time>
			</trkpt>
		
			<trkpt lat="44.638030" lon="8.142420">
			 <ele>566</ele>
			<time>2017-11-11T03:46:08Z</time>
			</trkpt>
		
			<trkpt lat="44.637970" lon="8.142330">
			 <ele>563</ele>
			<time>2017-11-11T03:48:08Z</time>
			</trkpt>
		
			<trkpt lat="44.637920" lon="8.142230">
			 <ele>560</ele>
			<time>2017-11-11T03:50:08Z</time>
			</trkpt>
		
			<trkpt lat="44.637910" lon="8.142140">
			 <ele>559</ele>
			<time>2017-11-11T03:52:08Z</time>
			</trkpt>
		
			<trkpt lat="44.637930" lon="8.142090">
			 <ele>560</ele>
			<time>2017-11-11T03:54:08Z</time>
			</trkpt>
		
			<trkpt lat="44.637980" lon="8.141990">
			 <ele>560</ele>
			<time>2017-11-11T03:56:08Z</time>
			</trkpt>
		
			<trkpt lat="44.638070" lon="8.141890">
			 <ele>562</ele>
			<time>2017-11-11T03:58:08Z</time>
			</trkpt>
		
			<trkpt lat="44.638150" lon="8.141790">
			 <ele>563</ele>
			<time>2017-11-11T04:00:08Z</time>
			</trkpt>
		
			<trkpt lat="44.638230" lon="8.141720">
			 <ele>564</ele>
			<time>2017-11-11T04:02:08Z</time>
			</trkpt>
		
			<trkpt lat="44.638310" lon="8.141650">
			 <ele>565</ele>
			<time>2017-11-11T04:04:08Z</time>
			</trkpt>
		
			<trkpt lat="44.638390" lon="8.141600">
			 <ele>567</ele>
			<time>2017-11-11T04:06:08Z</time>
			</trkpt>
		
			<trkpt lat="44.638510" lon="8.141570">
			 <ele>571</ele>
			<time>2017-11-11T04:08:08Z</time>
			</trkpt>
		
			<trkpt lat="44.638650" lon="8.141540">
			 <ele>575</ele>
			<time>2017-11-11T04:10:08Z</time>
			</trkpt>
		
			<trkpt lat="44.638770" lon="8.141500">
			 <ele>579</ele>
			<time>2017-11-11T04:12:08Z</time>
			</trkpt>
		
			<trkpt lat="44.638890" lon="8.141430">
			 <ele>583</ele>
			<time>2017-11-11T04:14:08Z</time>
			</trkpt>
		
			<trkpt lat="44.638930" lon="8.141380">
			 <ele>585</ele>
			<time>2017-11-11T04:16:08Z</time>
			</trkpt>
		
			<trkpt lat="44.638970" lon="8.141360">
			 <ele>586</ele>
			<time>2017-11-11T04:18:08Z</time>
			</trkpt>
		
			<trkpt lat="44.639000" lon="8.141360">
			 <ele>587</ele>
			<time>2017-11-11T04:20:08Z</time>
			</trkpt>
		
			<trkpt lat="44.639010" lon="8.141370">
			 <ele>588</ele>
			<time>2017-11-11T04:22:08Z</time>
			</trkpt>
		
			<trkpt lat="44.639020" lon="8.141390">
			 <ele>588</ele>
			<time>2017-11-11T04:24:08Z</time>
			</trkpt>
		
			<trkpt lat="44.639030" lon="8.141420">
			 <ele>589</ele>
			<time>2017-11-11T04:26:08Z</time>
			</trkpt>
		
			<trkpt lat="44.639030" lon="8.141460">
			 <ele>589</ele>
			<time>2017-11-11T04:28:08Z</time>
			</trkpt>
		
			<trkpt lat="44.639000" lon="8.141520">
			 <ele>588</ele>
			<time>2017-11-11T04:30:08Z</time>
			</trkpt>
		
			<trkpt lat="44.638890" lon="8.141620">
			 <ele>584</ele>
			<time>2017-11-11T04:32:08Z</time>
			</trkpt>
		
			<trkpt lat="44.638820" lon="8.141680">
			 <ele>583</ele>
			<time>2017-11-11T04:34:08Z</time>
			</trkpt>
		
			<trkpt lat="44.638740" lon="8.141730">
			 <ele>580</ele>
			<time>2017-11-11T04:36:08Z</time>
			</trkpt>
		
			<trkpt lat="44.638650" lon="8.141790">
			 <ele>578</ele>
			<time>2017-11-11T04:38:08Z</time>
			</trkpt>
		
			<trkpt lat="44.638610" lon="8.141840">
			 <ele>577</ele>
			<time>2017-11-11T04:40:08Z</time>
			</trkpt>
		
			<trkpt lat="44.638560" lon="8.141910">
			 <ele>577</ele>
			<time>2017-11-11T04:42:08Z</time>
			</trkpt>
		
			<trkpt lat="44.638520" lon="8.141980">
			 <ele>576</ele>
			<time>2017-11-11T04:44:08Z</time>
			</trkpt>
		
			<trkpt lat="44.638490" lon="8.142040">
			 <ele>576</ele>
			<time>2017-11-11T04:46:08Z</time>
			</trkpt>
		
			<trkpt lat="44.638480" lon="8.142100">
			 <ele>576</ele>
			<time>2017-11-11T04:48:08Z</time>
			</trkpt>
		
			<trkpt lat="44.638470" lon="8.142150">
			 <ele>577</ele>
			<time>2017-11-11T04:50:08Z</time>
			</trkpt>
		
			<trkpt lat="44.638470" lon="8.142190">
			 <ele>577</ele>
			<time>2017-11-11T04:52:08Z</time>
			</trkpt>
		
			<trkpt lat="44.638470" lon="8.142250">
			 <ele>578</ele>
			<time>2017-11-11T04:54:08Z</time>
			</trkpt>
		
			<trkpt lat="44.638490" lon="8.142290">
			 <ele>579</ele>
			<time>2017-11-11T04:56:08Z</time>
			</trkpt>
		
			<trkpt lat="44.638500" lon="8.142310">
			 <ele>580</ele>
			<time>2017-11-11T04:58:08Z</time>
			</trkpt>
		
			<trkpt lat="44.638540" lon="8.142360">
			 <ele>582</ele>
			<time>2017-11-11T05:00:08Z</time>
			</trkpt>
		
			<trkpt lat="44.638580" lon="8.142410">
			 <ele>584</ele>
			<time>2017-11-11T05:02:08Z</time>
			</trkpt>
		
			<trkpt lat="44.638610" lon="8.142430">
			 <ele>585</ele>
			<time>2017-11-11T05:04:08Z</time>
			</trkpt>
		
			<trkpt lat="44.638670" lon="8.142480">
			 <ele>587</ele>
			<time>2017-11-11T05:06:08Z</time>
			</trkpt>
		
			<trkpt lat="44.638720" lon="8.142510">
			 <ele>589</ele>
			<time>2017-11-11T05:08:08Z</time>
			</trkpt>
		
			<trkpt lat="44.638770" lon="8.142540">
			 <ele>590</ele>
			<time>2017-11-11T05:10:08Z</time>
			</trkpt>
		
			<trkpt lat="44.638830" lon="8.142600">
			 <ele>592</ele>
			<time>2017-11-11T05:12:08Z</time>
			</trkpt>
		
			<trkpt lat="44.638870" lon="8.142640">
			 <ele>593</ele>
			<time>2017-11-11T05:14:08Z</time>
			</trkpt>
		
			<trkpt lat="44.638900" lon="8.142690">
			 <ele>594</ele>
			<time>2017-11-11T05:16:08Z</time>
			</trkpt>
		
			<trkpt lat="44.638920" lon="8.142780">
			 <ele>594</ele>
			<time>2017-11-11T05:18:08Z</time>
			</trkpt>
		
			<trkpt lat="44.638940" lon="8.142840">
			 <ele>595</ele>
			<time>2017-11-11T05:20:08Z</time>
			</trkpt>
		
			<trkpt lat="44.638940" lon="8.142880">
			 <ele>595</ele>
			<time>2017-11-11T05:22:08Z</time>
			</trkpt>
		
			<trkpt lat="44.638960" lon="8.143000">
			 <ele>595</ele>
			<time>2017-11-11T05:24:08Z</time>
			</trkpt>
		
			<trkpt lat="44.639060" lon="8.143200">
			 <ele>598</ele>
			<time>2017-11-11T05:26:08Z</time>
			</trkpt>
		
			<trkpt lat="44.639110" lon="8.143270">
			 <ele>600</ele>
			<time>2017-11-11T05:28:08Z</time>
			</trkpt>
		
			<trkpt lat="44.639160" lon="8.143390">
			 <ele>602</ele>
			<time>2017-11-11T05:30:08Z</time>
			</trkpt>
		
			<trkpt lat="44.639190" lon="8.143470">
			 <ele>603</ele>
			<time>2017-11-11T05:32:08Z</time>
			</trkpt>
		
			<trkpt lat="44.639220" lon="8.143550">
			 <ele>604</ele>
			<time>2017-11-11T05:34:08Z</time>
			</trkpt>
		
			<trkpt lat="44.639230" lon="8.143620">
			 <ele>605</ele>
			<time>2017-11-11T05:36:08Z</time>
			</trkpt>
		
			<trkpt lat="44.639240" lon="8.143670">
			 <ele>605</ele>
			<time>2017-11-11T05:38:08Z</time>
			</trkpt>
		
			<trkpt lat="44.639250" lon="8.143710">
			 <ele>606</ele>
			<time>2017-11-11T05:40:08Z</time>
			</trkpt>
		
			<trkpt lat="44.639250" lon="8.143750">
			 <ele>606</ele>
			<time>2017-11-11T05:42:08Z</time>
			</trkpt>
		
			<trkpt lat="44.639250" lon="8.143800">
			 <ele>606</ele>
			<time>2017-11-11T05:44:08Z</time>
			</trkpt>
		
			<trkpt lat="44.639250" lon="8.143860">
			 <ele>606</ele>
			<time>2017-11-11T05:46:08Z</time>
			</trkpt>
		
			<trkpt lat="44.639250" lon="8.143900">
			 <ele>606</ele>
			<time>2017-11-11T05:48:08Z</time>
			</trkpt>
		
			<trkpt lat="44.639250" lon="8.143920">
			 <ele>606</ele>
			<time>2017-11-11T05:50:08Z</time>
			</trkpt>
		
			<trkpt lat="44.639240" lon="8.143960">
			 <ele>606</ele>
			<time>2017-11-11T05:52:08Z</time>
			</trkpt>
		
			<trkpt lat="44.639230" lon="8.143990">
			 <ele>606</ele>
			<time>2017-11-11T05:54:08Z</time>
			</trkpt>
		
			<trkpt lat="44.639220" lon="8.144020">
			 <ele>606</ele>
			<time>2017-11-11T05:56:08Z</time>
			</trkpt>
		
			<trkpt lat="44.639210" lon="8.144060">
			 <ele>606</ele>
			<time>2017-11-11T05:58:08Z</time>
			</trkpt>
		
			<trkpt lat="44.639190" lon="8.144090">
			 <ele>605</ele>
			<time>2017-11-11T06:00:08Z</time>
			</trkpt>
		
			<trkpt lat="44.639140" lon="8.144160">
			 <ele>604</ele>
			<time>2017-11-11T06:02:08Z</time>
			</trkpt>
		
			<trkpt lat="44.639090" lon="8.144240">
			 <ele>605</ele>
			<time>2017-11-11T06:04:08Z</time>
			</trkpt>
		
			<trkpt lat="44.639050" lon="8.144300">
			 <ele>605</ele>
			<time>2017-11-11T06:06:08Z</time>
			</trkpt>
		
			<trkpt lat="44.639020" lon="8.144330">
			 <ele>605</ele>
			<time>2017-11-11T06:08:08Z</time>
			</trkpt>
		
			<trkpt lat="44.638990" lon="8.144380">
			 <ele>606</ele>
			<time>2017-11-11T06:10:08Z</time>
			</trkpt>
		
			<trkpt lat="44.638970" lon="8.144410">
			 <ele>606</ele>
			<time>2017-11-11T06:12:08Z</time>
			</trkpt>
		
			<trkpt lat="44.638940" lon="8.144470">
			 <ele>606</ele>
			<time>2017-11-11T06:14:08Z</time>
			</trkpt>
		
			<trkpt lat="44.638910" lon="8.144510">
			 <ele>607</ele>
			<time>2017-11-11T06:16:08Z</time>
			</trkpt>
		
			<trkpt lat="44.638840" lon="8.144630">
			 <ele>608</ele>
			<time>2017-11-11T06:18:08Z</time>
			</trkpt>
		
			<trkpt lat="44.638780" lon="8.144720">
			 <ele>609</ele>
			<time>2017-11-11T06:20:08Z</time>
			</trkpt>
		
			<trkpt lat="44.638730" lon="8.144800">
			 <ele>610</ele>
			<time>2017-11-11T06:22:08Z</time>
			</trkpt>
		
			<trkpt lat="44.638660" lon="8.144880">
			 <ele>610</ele>
			<time>2017-11-11T06:24:08Z</time>
			</trkpt>
		
			<trkpt lat="44.638600" lon="8.144930">
			 <ele>610</ele>
			<time>2017-11-11T06:26:08Z</time>
			</trkpt>
		
			<trkpt lat="44.638530" lon="8.144990">
			 <ele>610</ele>
			<time>2017-11-11T06:28:08Z</time>
			</trkpt>
		
			<trkpt lat="44.638470" lon="8.145040">
			 <ele>610</ele>
			<time>2017-11-11T06:30:08Z</time>
			</trkpt>
		
			<trkpt lat="44.638410" lon="8.145100">
			 <ele>611</ele>
			<time>2017-11-11T06:32:08Z</time>
			</trkpt>
		
			<trkpt lat="44.638350" lon="8.145150">
			 <ele>611</ele>
			<time>2017-11-11T06:34:08Z</time>
			</trkpt>
		
			<trkpt lat="44.638260" lon="8.145220">
			 <ele>610</ele>
			<time>2017-11-11T06:36:08Z</time>
			</trkpt>
		
			<trkpt lat="44.638190" lon="8.145280">
			 <ele>610</ele>
			<time>2017-11-11T06:38:08Z</time>
			</trkpt>
		
			<trkpt lat="44.638150" lon="8.145310">
			 <ele>610</ele>
			<time>2017-11-11T06:40:08Z</time>
			</trkpt>
		
			<trkpt lat="44.638100" lon="8.145350">
			 <ele>610</ele>
			<time>2017-11-11T06:42:08Z</time>
			</trkpt>
		
			<trkpt lat="44.638060" lon="8.145380">
			 <ele>609</ele>
			<time>2017-11-11T06:44:08Z</time>
			</trkpt>
		
			<trkpt lat="44.638030" lon="8.145410">
			 <ele>609</ele>
			<time>2017-11-11T06:46:08Z</time>
			</trkpt>
		
			<trkpt lat="44.638000" lon="8.145440">
			 <ele>609</ele>
			<time>2017-11-11T06:48:08Z</time>
			</trkpt>
		
			<trkpt lat="44.637970" lon="8.145460">
			 <ele>609</ele>
			<time>2017-11-11T06:50:08Z</time>
			</trkpt>
		
			<trkpt lat="44.637960" lon="8.145490">
			 <ele>610</ele>
			<time>2017-11-11T06:52:08Z</time>
			</trkpt>
		
			<trkpt lat="44.637950" lon="8.145500">
			 <ele>610</ele>
			<time>2017-11-11T06:54:08Z</time>
			</trkpt>
		
			<trkpt lat="44.637940" lon="8.145540">
			 <ele>610</ele>
			<time>2017-11-11T06:56:08Z</time>
			</trkpt>
		
			<trkpt lat="44.637940" lon="8.145570">
			 <ele>611</ele>
			<time>2017-11-11T06:58:08Z</time>
			</trkpt>
		
			<trkpt lat="44.637940" lon="8.145570">
			 <ele>611</ele>
			<time>2017-11-11T07:00:08Z</time>
			</trkpt>
		
			<trkpt lat="44.638010" lon="8.145530">
			 <ele>612</ele>
			<time>2017-11-11T07:02:08Z</time>
			</trkpt>
		
			<trkpt lat="44.638140" lon="8.145430">
			 <ele>613</ele>
			<time>2017-11-11T07:04:08Z</time>
			</trkpt>
		
			<trkpt lat="44.638180" lon="8.145410">
			 <ele>613</ele>
			<time>2017-11-11T07:06:08Z</time>
			</trkpt>
		
			<trkpt lat="44.638330" lon="8.145310">
			 <ele>614</ele>
			<time>2017-11-11T07:08:08Z</time>
			</trkpt>
		
			<trkpt lat="44.638630" lon="8.145100">
			 <ele>614</ele>
			<time>2017-11-11T07:10:08Z</time>
			</trkpt>
		
			<trkpt lat="44.638870" lon="8.144910">
			 <ele>615</ele>
			<time>2017-11-11T07:12:08Z</time>
			</trkpt>
		
			<trkpt lat="44.639110" lon="8.144740">
			 <ele>616</ele>
			<time>2017-11-11T07:14:08Z</time>
			</trkpt>
		
			<trkpt lat="44.639270" lon="8.144640">
			 <ele>615</ele>
			<time>2017-11-11T07:16:08Z</time>
			</trkpt>
		
			<trkpt lat="44.639380" lon="8.144570">
			 <ele>614</ele>
			<time>2017-11-11T07:18:08Z</time>
			</trkpt>
		
			<trkpt lat="44.639450" lon="8.144510">
			 <ele>614</ele>
			<time>2017-11-11T07:20:08Z</time>
			</trkpt>
		
			<trkpt lat="44.639570" lon="8.144410">
			 <ele>614</ele>
			<time>2017-11-11T07:22:08Z</time>
			</trkpt>
		
			<trkpt lat="44.639650" lon="8.144310">
			 <ele>615</ele>
			<time>2017-11-11T07:24:08Z</time>
			</trkpt>
		
			<trkpt lat="44.639690" lon="8.144270">
			 <ele>615</ele>
			<time>2017-11-11T07:26:08Z</time>
			</trkpt>
		
			<trkpt lat="44.639730" lon="8.144200">
			 <ele>616</ele>
			<time>2017-11-11T07:28:08Z</time>
			</trkpt>
		
			<trkpt lat="44.639780" lon="8.144110">
			 <ele>617</ele>
			<time>2017-11-11T07:30:08Z</time>
			</trkpt>
		
			<trkpt lat="44.639790" lon="8.144060">
			 <ele>618</ele>
			<time>2017-11-11T07:32:08Z</time>
			</trkpt>
		
			<trkpt lat="44.639810" lon="8.144000">
			 <ele>618</ele>
			<time>2017-11-11T07:34:08Z</time>
			</trkpt>
		
			<trkpt lat="44.639820" lon="8.143910">
			 <ele>619</ele>
			<time>2017-11-11T07:36:08Z</time>
			</trkpt>
		
			<trkpt lat="44.639830" lon="8.143820">
			 <ele>620</ele>
			<time>2017-11-11T07:38:08Z</time>
			</trkpt>
		
			<trkpt lat="44.639840" lon="8.143740">
			 <ele>621</ele>
			<time>2017-11-11T07:40:08Z</time>
			</trkpt>
		
			<trkpt lat="44.639840" lon="8.143640">
			 <ele>621</ele>
			<time>2017-11-11T07:42:08Z</time>
			</trkpt>
		
			<trkpt lat="44.639820" lon="8.143550">
			 <ele>621</ele>
			<time>2017-11-11T07:44:08Z</time>
			</trkpt>
		
			<trkpt lat="44.639790" lon="8.143430">
			 <ele>621</ele>
			<time>2017-11-11T07:46:08Z</time>
			</trkpt>
		
			<trkpt lat="44.639770" lon="8.143360">
			 <ele>621</ele>
			<time>2017-11-11T07:48:08Z</time>
			</trkpt>
		
			<trkpt lat="44.639740" lon="8.143280">
			 <ele>620</ele>
			<time>2017-11-11T07:50:08Z</time>
			</trkpt>
		
			<trkpt lat="44.639680" lon="8.143060">
			 <ele>618</ele>
			<time>2017-11-11T07:52:08Z</time>
			</trkpt>
		
			<trkpt lat="44.639650" lon="8.142960">
			 <ele>618</ele>
			<time>2017-11-11T07:54:08Z</time>
			</trkpt>
		
			<trkpt lat="44.639650" lon="8.142910">
			 <ele>618</ele>
			<time>2017-11-11T07:56:08Z</time>
			</trkpt>
		
			<trkpt lat="44.639650" lon="8.142860">
			 <ele>618</ele>
			<time>2017-11-11T07:58:08Z</time>
			</trkpt>
		
			<trkpt lat="44.639640" lon="8.142830">
			 <ele>617</ele>
			<time>2017-11-11T08:00:08Z</time>
			</trkpt>
		
			<trkpt lat="44.639650" lon="8.142800">
			 <ele>618</ele>
			<time>2017-11-11T08:02:08Z</time>
			</trkpt>
		
			<trkpt lat="44.639650" lon="8.142760">
			 <ele>618</ele>
			<time>2017-11-11T08:04:08Z</time>
			</trkpt>
		
			<trkpt lat="44.639650" lon="8.142730">
			 <ele>618</ele>
			<time>2017-11-11T08:06:08Z</time>
			</trkpt>
		
			<trkpt lat="44.639670" lon="8.142690">
			 <ele>618</ele>
			<time>2017-11-11T08:08:08Z</time>
			</trkpt>
		
			<trkpt lat="44.639690" lon="8.142660">
			 <ele>619</ele>
			<time>2017-11-11T08:10:08Z</time>
			</trkpt>
		
			<trkpt lat="44.639730" lon="8.142610">
			 <ele>620</ele>
			<time>2017-11-11T08:12:08Z</time>
			</trkpt>
		
			<trkpt lat="44.639790" lon="8.142530">
			 <ele>622</ele>
			<time>2017-11-11T08:14:08Z</time>
			</trkpt>
		
			<trkpt lat="44.639870" lon="8.142420">
			 <ele>624</ele>
			<time>2017-11-11T08:16:08Z</time>
			</trkpt>
		
			<trkpt lat="44.639970" lon="8.142260">
			 <ele>627</ele>
			<time>2017-11-11T08:18:08Z</time>
			</trkpt>
		
			<trkpt lat="44.640040" lon="8.142150">
			 <ele>627</ele>
			<time>2017-11-11T08:20:08Z</time>
			</trkpt>
		
			<trkpt lat="44.640120" lon="8.142010">
			 <ele>627</ele>
			<time>2017-11-11T08:22:08Z</time>
			</trkpt>
		
			<trkpt lat="44.640190" lon="8.141870">
			 <ele>628</ele>
			<time>2017-11-11T08:24:08Z</time>
			</trkpt>
		
			<trkpt lat="44.640270" lon="8.141730">
			 <ele>629</ele>
			<time>2017-11-11T08:26:08Z</time>
			</trkpt>
		
			<trkpt lat="44.640330" lon="8.141600">
			 <ele>631</ele>
			<time>2017-11-11T08:28:08Z</time>
			</trkpt>
		
			<trkpt lat="44.640350" lon="8.141530">
			 <ele>631</ele>
			<time>2017-11-11T08:30:08Z</time>
			</trkpt>
		
			<trkpt lat="44.640370" lon="8.141450">
			 <ele>632</ele>
			<time>2017-11-11T08:32:08Z</time>
			</trkpt>
		
			<trkpt lat="44.640380" lon="8.141340">
			 <ele>633</ele>
			<time>2017-11-11T08:34:08Z</time>
			</trkpt>
		
			<trkpt lat="44.640370" lon="8.141250">
			 <ele>633</ele>
			<time>2017-11-11T08:36:08Z</time>
			</trkpt>
		
			<trkpt lat="44.640360" lon="8.141190">
			 <ele>633</ele>
			<time>2017-11-11T08:38:08Z</time>
			</trkpt>
		
			<trkpt lat="44.640330" lon="8.141130">
			 <ele>633</ele>
			<time>2017-11-11T08:40:08Z</time>
			</trkpt>
		
			<trkpt lat="44.640290" lon="8.141080">
			 <ele>632</ele>
			<time>2017-11-11T08:42:08Z</time>
			</trkpt>
		
			<trkpt lat="44.640230" lon="8.141030">
			 <ele>631</ele>
			<time>2017-11-11T08:44:08Z</time>
			</trkpt>
		
			<trkpt lat="44.640170" lon="8.141000">
			 <ele>629</ele>
			<time>2017-11-11T08:46:08Z</time>
			</trkpt>
		
			<trkpt lat="44.640100" lon="8.140950">
			 <ele>628</ele>
			<time>2017-11-11T08:48:08Z</time>
			</trkpt>
		
			<trkpt lat="44.640080" lon="8.140920">
			 <ele>627</ele>
			<time>2017-11-11T08:50:08Z</time>
			</trkpt>
		
			<trkpt lat="44.640070" lon="8.140890">
			 <ele>627</ele>
			<time>2017-11-11T08:52:08Z</time>
			</trkpt>
		
			<trkpt lat="44.640050" lon="8.140840">
			 <ele>626</ele>
			<time>2017-11-11T08:54:08Z</time>
			</trkpt>
		
			<trkpt lat="44.640050" lon="8.140800">
			 <ele>626</ele>
			<time>2017-11-11T08:56:08Z</time>
			</trkpt>
		
			<trkpt lat="44.640050" lon="8.140760">
			 <ele>625</ele>
			<time>2017-11-11T08:58:08Z</time>
			</trkpt>
		
			<trkpt lat="44.640060" lon="8.140740">
			 <ele>625</ele>
			<time>2017-11-11T09:00:08Z</time>
			</trkpt>
		
			<trkpt lat="44.640060" lon="8.140710">
			 <ele>624</ele>
			<time>2017-11-11T09:02:08Z</time>
			</trkpt>
		
			<trkpt lat="44.640100" lon="8.140660">
			 <ele>625</ele>
			<time>2017-11-11T09:04:08Z</time>
			</trkpt>
		
			<trkpt lat="44.640140" lon="8.140620">
			 <ele>625</ele>
			<time>2017-11-11T09:06:08Z</time>
			</trkpt>
		
			<trkpt lat="44.640380" lon="8.140450">
			 <ele>630</ele>
			<time>2017-11-11T09:08:08Z</time>
			</trkpt>
		
			<trkpt lat="44.640680" lon="8.140200">
			 <ele>637</ele>
			<time>2017-11-11T09:10:08Z</time>
			</trkpt>
		
			<trkpt lat="44.640930" lon="8.139970">
			 <ele>641</ele>
			<time>2017-11-11T09:12:08Z</time>
			</trkpt>
		
			<trkpt lat="44.641020" lon="8.139900">
			 <ele>642</ele>
			<time>2017-11-11T09:14:08Z</time>
			</trkpt>
		
			<trkpt lat="44.641090" lon="8.139830">
			 <ele>643</ele>
			<time>2017-11-11T09:16:08Z</time>
			</trkpt>
		
			<trkpt lat="44.641120" lon="8.139790">
			 <ele>644</ele>
			<time>2017-11-11T09:18:08Z</time>
			</trkpt>
		
			<trkpt lat="44.641150" lon="8.139740">
			 <ele>644</ele>
			<time>2017-11-11T09:20:08Z</time>
			</trkpt>
		
			<trkpt lat="44.641170" lon="8.139700">
			 <ele>644</ele>
			<time>2017-11-11T09:22:08Z</time>
			</trkpt>
		
			<trkpt lat="44.641190" lon="8.139640">
			 <ele>645</ele>
			<time>2017-11-11T09:24:08Z</time>
			</trkpt>
		
			<trkpt lat="44.641200" lon="8.139610">
			 <ele>645</ele>
			<time>2017-11-11T09:26:08Z</time>
			</trkpt>
		
			<trkpt lat="44.641200" lon="8.139580">
			 <ele>645</ele>
			<time>2017-11-11T09:28:08Z</time>
			</trkpt>
		
			<trkpt lat="44.641210" lon="8.139520">
			 <ele>645</ele>
			<time>2017-11-11T09:30:08Z</time>
			</trkpt>
		
			<trkpt lat="44.641210" lon="8.139480">
			 <ele>645</ele>
			<time>2017-11-11T09:32:08Z</time>
			</trkpt>
		
			<trkpt lat="44.641210" lon="8.139450">
			 <ele>645</ele>
			<time>2017-11-11T09:34:08Z</time>
			</trkpt>
		
			<trkpt lat="44.641200" lon="8.139420">
			 <ele>644</ele>
			<time>2017-11-11T09:36:08Z</time>
			</trkpt>
		
			<trkpt lat="44.641170" lon="8.139380">
			 <ele>643</ele>
			<time>2017-11-11T09:38:08Z</time>
			</trkpt>
		
			<trkpt lat="44.641150" lon="8.139320">
			 <ele>643</ele>
			<time>2017-11-11T09:40:08Z</time>
			</trkpt>
		
			<trkpt lat="44.641120" lon="8.139230">
			 <ele>642</ele>
			<time>2017-11-11T09:42:08Z</time>
			</trkpt>
		
			<trkpt lat="44.641090" lon="8.139100">
			 <ele>640</ele>
			<time>2017-11-11T09:44:08Z</time>
			</trkpt>
		
			<trkpt lat="44.641050" lon="8.138930">
			 <ele>637</ele>
			<time>2017-11-11T09:46:08Z</time>
			</trkpt>
		
			<trkpt lat="44.641000" lon="8.138720">
			 <ele>634</ele>
			<time>2017-11-11T09:48:08Z</time>
			</trkpt>
		
			<trkpt lat="44.640980" lon="8.138570">
			 <ele>633</ele>
			<time>2017-11-11T09:50:08Z</time>
			</trkpt>
		
			<trkpt lat="44.640990" lon="8.138450">
			 <ele>632</ele>
			<time>2017-11-11T09:52:08Z</time>
			</trkpt>
		
			<trkpt lat="44.641020" lon="8.138340">
			 <ele>631</ele>
			<time>2017-11-11T09:54:08Z</time>
			</trkpt>
		
			<trkpt lat="44.641070" lon="8.138250">
			 <ele>630</ele>
			<time>2017-11-11T09:56:08Z</time>
			</trkpt>
		
			<trkpt lat="44.641130" lon="8.138170">
			 <ele>629</ele>
			<time>2017-11-11T09:58:08Z</time>
			</trkpt>
		
			<trkpt lat="44.641190" lon="8.138110">
			 <ele>628</ele>
			<time>2017-11-11T10:00:08Z</time>
			</trkpt>
		
			<trkpt lat="44.641250" lon="8.138050">
			 <ele>628</ele>
			<time>2017-11-11T10:02:08Z</time>
			</trkpt>
		
			<trkpt lat="44.641280" lon="8.138010">
			 <ele>627</ele>
			<time>2017-11-11T10:04:08Z</time>
			</trkpt>
		
			<trkpt lat="44.641320" lon="8.137990">
			 <ele>627</ele>
			<time>2017-11-11T10:06:08Z</time>
			</trkpt>
		
			<trkpt lat="44.641360" lon="8.137980">
			 <ele>628</ele>
			<time>2017-11-11T10:08:08Z</time>
			</trkpt>
		
			<trkpt lat="44.641400" lon="8.137970">
			 <ele>628</ele>
			<time>2017-11-11T10:10:08Z</time>
			</trkpt>
		
			<trkpt lat="44.641480" lon="8.137960">
			 <ele>630</ele>
			<time>2017-11-11T10:12:08Z</time>
			</trkpt>
		
			<trkpt lat="44.641580" lon="8.137960">
			 <ele>631</ele>
			<time>2017-11-11T10:14:08Z</time>
			</trkpt>
		
			<trkpt lat="44.641660" lon="8.137960">
			 <ele>633</ele>
			<time>2017-11-11T10:16:08Z</time>
			</trkpt>
		
			<trkpt lat="44.641710" lon="8.137950">
			 <ele>633</ele>
			<time>2017-11-11T10:18:08Z</time>
			</trkpt>
		
			<trkpt lat="44.641860" lon="8.137880">
			 <ele>632</ele>
			<time>2017-11-11T10:20:08Z</time>
			</trkpt>
		
			<trkpt lat="44.642110" lon="8.137750">
			 <ele>632</ele>
			<time>2017-11-11T10:22:08Z</time>
			</trkpt>
		
			<trkpt lat="44.642300" lon="8.137670">
			 <ele>632</ele>
			<time>2017-11-11T10:24:08Z</time>
			</trkpt>
		
			<trkpt lat="44.642500" lon="8.137620">
			 <ele>633</ele>
			<time>2017-11-11T10:26:08Z</time>
			</trkpt>
		
			<trkpt lat="44.642740" lon="8.137590">
			 <ele>635</ele>
			<time>2017-11-11T10:28:08Z</time>
			</trkpt>
		
			<trkpt lat="44.642780" lon="8.137580">
			 <ele>636</ele>
			<time>2017-11-11T10:30:08Z</time>
			</trkpt>
		
			<trkpt lat="44.643280" lon="8.137440">
			 <ele>640</ele>
			<time>2017-11-11T10:32:08Z</time>
			</trkpt>
		
			<trkpt lat="44.643370" lon="8.137420">
			 <ele>641</ele>
			<time>2017-11-11T10:34:08Z</time>
			</trkpt>
		
			<trkpt lat="44.643400" lon="8.137410">
			 <ele>642</ele>
			<time>2017-11-11T10:36:08Z</time>
			</trkpt>
		
			<trkpt lat="44.643410" lon="8.137400">
			 <ele>642</ele>
			<time>2017-11-11T10:38:08Z</time>
			</trkpt>
		
			<trkpt lat="44.643420" lon="8.137390">
			 <ele>642</ele>
			<time>2017-11-11T10:40:08Z</time>
			</trkpt>
		
			<trkpt lat="44.643430" lon="8.137370">
			 <ele>642</ele>
			<time>2017-11-11T10:42:08Z</time>
			</trkpt>
		
			<trkpt lat="44.643450" lon="8.137350">
			 <ele>642</ele>
			<time>2017-11-11T10:44:08Z</time>
			</trkpt>
		
			<trkpt lat="44.643460" lon="8.137330">
			 <ele>642</ele>
			<time>2017-11-11T10:46:08Z</time>
			</trkpt>
		
			<trkpt lat="44.643470" lon="8.137310">
			 <ele>643</ele>
			<time>2017-11-11T10:48:08Z</time>
			</trkpt>
		
			<trkpt lat="44.643490" lon="8.137290">
			 <ele>643</ele>
			<time>2017-11-11T10:50:08Z</time>
			</trkpt>
		
			<trkpt lat="44.643510" lon="8.137240">
			 <ele>643</ele>
			<time>2017-11-11T10:52:08Z</time>
			</trkpt>
		
			<trkpt lat="44.643530" lon="8.137200">
			 <ele>643</ele>
			<time>2017-11-11T10:54:08Z</time>
			</trkpt>
		
			<trkpt lat="44.643560" lon="8.137150">
			 <ele>644</ele>
			<time>2017-11-11T10:56:08Z</time>
			</trkpt>
		
			<trkpt lat="44.643580" lon="8.137090">
			 <ele>644</ele>
			<time>2017-11-11T10:58:08Z</time>
			</trkpt>
		
			<trkpt lat="44.643610" lon="8.137020">
			 <ele>645</ele>
			<time>2017-11-11T11:00:08Z</time>
			</trkpt>
		
			<trkpt lat="44.643620" lon="8.136960">
			 <ele>645</ele>
			<time>2017-11-11T11:02:08Z</time>
			</trkpt>
		
			<trkpt lat="44.643650" lon="8.136870">
			 <ele>645</ele>
			<time>2017-11-11T11:04:08Z</time>
			</trkpt>
		
			<trkpt lat="44.643680" lon="8.136730">
			 <ele>646</ele>
			<time>2017-11-11T11:06:08Z</time>
			</trkpt>
		
			<trkpt lat="44.643710" lon="8.136580">
			 <ele>646</ele>
			<time>2017-11-11T11:08:08Z</time>
			</trkpt>
		
			<trkpt lat="44.643730" lon="8.136490">
			 <ele>646</ele>
			<time>2017-11-11T11:10:08Z</time>
			</trkpt>
		
			<trkpt lat="44.643750" lon="8.136380">
			 <ele>646</ele>
			<time>2017-11-11T11:12:08Z</time>
			</trkpt>
		
			<trkpt lat="44.643770" lon="8.136280">
			 <ele>646</ele>
			<time>2017-11-11T11:14:08Z</time>
			</trkpt>
		
			<trkpt lat="44.643790" lon="8.136140">
			 <ele>646</ele>
			<time>2017-11-11T11:16:08Z</time>
			</trkpt>
		
			<trkpt lat="44.643800" lon="8.136050">
			 <ele>646</ele>
			<time>2017-11-11T11:18:08Z</time>
			</trkpt>
		
			<trkpt lat="44.643810" lon="8.135970">
			 <ele>646</ele>
			<time>2017-11-11T11:20:08Z</time>
			</trkpt>
		
			<trkpt lat="44.643810" lon="8.135890">
			 <ele>645</ele>
			<time>2017-11-11T11:22:08Z</time>
			</trkpt>
		
			<trkpt lat="44.643820" lon="8.135820">
			 <ele>645</ele>
			<time>2017-11-11T11:24:08Z</time>
			</trkpt>
		
			<trkpt lat="44.643840" lon="8.135750">
			 <ele>645</ele>
			<time>2017-11-11T11:26:08Z</time>
			</trkpt>
		
			<trkpt lat="44.643870" lon="8.135670">
			 <ele>646</ele>
			<time>2017-11-11T11:28:08Z</time>
			</trkpt>
		
			<trkpt lat="44.643930" lon="8.135520">
			 <ele>646</ele>
			<time>2017-11-11T11:30:08Z</time>
			</trkpt>
		
			<trkpt lat="44.644030" lon="8.135250">
			 <ele>647</ele>
			<time>2017-11-11T11:32:08Z</time>
			</trkpt>
		
			<trkpt lat="44.644110" lon="8.135060">
			 <ele>648</ele>
			<time>2017-11-11T11:34:08Z</time>
			</trkpt>
		
			<trkpt lat="44.644180" lon="8.134850">
			 <ele>651</ele>
			<time>2017-11-11T11:36:08Z</time>
			</trkpt>
		
			<trkpt lat="44.644200" lon="8.134760">
			 <ele>652</ele>
			<time>2017-11-11T11:38:08Z</time>
			</trkpt>
		
			<trkpt lat="44.644210" lon="8.134690">
			 <ele>653</ele>
			<time>2017-11-11T11:40:08Z</time>
			</trkpt>
		
			<trkpt lat="44.644210" lon="8.134600">
			 <ele>653</ele>
			<time>2017-11-11T11:42:08Z</time>
			</trkpt>
		
			<trkpt lat="44.644200" lon="8.134510">
			 <ele>654</ele>
			<time>2017-11-11T11:44:08Z</time>
			</trkpt>
		
			<trkpt lat="44.644180" lon="8.134440">
			 <ele>654</ele>
			<time>2017-11-11T11:46:08Z</time>
			</trkpt>
		
			<trkpt lat="44.644150" lon="8.134370">
			 <ele>654</ele>
			<time>2017-11-11T11:48:08Z</time>
			</trkpt>
		
			<trkpt lat="44.644120" lon="8.134290">
			 <ele>653</ele>
			<time>2017-11-11T11:50:08Z</time>
			</trkpt>
		
			<trkpt lat="44.644080" lon="8.134200">
			 <ele>653</ele>
			<time>2017-11-11T11:52:08Z</time>
			</trkpt>
		
			<trkpt lat="44.644050" lon="8.134140">
			 <ele>653</ele>
			<time>2017-11-11T11:54:08Z</time>
			</trkpt>
		
			<trkpt lat="44.644030" lon="8.134070">
			 <ele>654</ele>
			<time>2017-11-11T11:56:08Z</time>
			</trkpt>
		
			<trkpt lat="44.644020" lon="8.134020">
			 <ele>654</ele>
			<time>2017-11-11T11:58:08Z</time>
			</trkpt>
		
			<trkpt lat="44.643990" lon="8.133950">
			 <ele>655</ele>
			<time>2017-11-11T12:00:08Z</time>
			</trkpt>
		
			<trkpt lat="44.643930" lon="8.133860">
			 <ele>655</ele>
			<time>2017-11-11T12:02:08Z</time>
			</trkpt>
		
			<trkpt lat="44.643860" lon="8.133760">
			 <ele>655</ele>
			<time>2017-11-11T12:04:08Z</time>
			</trkpt>
		
			<trkpt lat="44.643790" lon="8.133660">
			 <ele>654</ele>
			<time>2017-11-11T12:06:08Z</time>
			</trkpt>
		
			<trkpt lat="44.643730" lon="8.133590">
			 <ele>654</ele>
			<time>2017-11-11T12:08:08Z</time>
			</trkpt>
		
			<trkpt lat="44.643680" lon="8.133520">
			 <ele>654</ele>
			<time>2017-11-11T12:10:08Z</time>
			</trkpt>
		
			<trkpt lat="44.643300" lon="8.133210">
			 <ele>646</ele>
			<time>2017-11-11T12:12:08Z</time>
			</trkpt>
		
			<trkpt lat="44.643260" lon="8.133170">
			 <ele>644</ele>
			<time>2017-11-11T12:14:08Z</time>
			</trkpt>
		
			<trkpt lat="44.643240" lon="8.133150">
			 <ele>643</ele>
			<time>2017-11-11T12:16:08Z</time>
			</trkpt>
		
			<trkpt lat="44.643220" lon="8.133130">
			 <ele>643</ele>
			<time>2017-11-11T12:18:08Z</time>
			</trkpt>
		
			<trkpt lat="44.643210" lon="8.133110">
			 <ele>642</ele>
			<time>2017-11-11T12:20:08Z</time>
			</trkpt>
		
			<trkpt lat="44.643190" lon="8.133070">
			 <ele>641</ele>
			<time>2017-11-11T12:22:08Z</time>
			</trkpt>
		
			<trkpt lat="44.643180" lon="8.133040">
			 <ele>641</ele>
			<time>2017-11-11T12:24:08Z</time>
			</trkpt>
		
			<trkpt lat="44.643170" lon="8.133000">
			 <ele>640</ele>
			<time>2017-11-11T12:26:08Z</time>
			</trkpt>
		
			<trkpt lat="44.643170" lon="8.132940">
			 <ele>640</ele>
			<time>2017-11-11T12:28:08Z</time>
			</trkpt>
		
			<trkpt lat="44.643170" lon="8.132900">
			 <ele>640</ele>
			<time>2017-11-11T12:30:08Z</time>
			</trkpt>
		
			<trkpt lat="44.643170" lon="8.132870">
			 <ele>640</ele>
			<time>2017-11-11T12:32:08Z</time>
			</trkpt>
		
			<trkpt lat="44.643220" lon="8.132780">
			 <ele>642</ele>
			<time>2017-11-11T12:34:08Z</time>
			</trkpt>
		
			<trkpt lat="44.643250" lon="8.132730">
			 <ele>643</ele>
			<time>2017-11-11T12:36:08Z</time>
			</trkpt>
		
			<trkpt lat="44.643330" lon="8.132630">
			 <ele>646</ele>
			<time>2017-11-11T12:38:08Z</time>
			</trkpt>
		
			<trkpt lat="44.643400" lon="8.132520">
			 <ele>649</ele>
			<time>2017-11-11T12:40:08Z</time>
			</trkpt>
		
			<trkpt lat="44.643450" lon="8.132420">
			 <ele>649</ele>
			<time>2017-11-11T12:42:08Z</time>
			</trkpt>
		
			<trkpt lat="44.643490" lon="8.132330">
			 <ele>650</ele>
			<time>2017-11-11T12:44:08Z</time>
			</trkpt>
		
			<trkpt lat="44.643550" lon="8.132200">
			 <ele>650</ele>
			<time>2017-11-11T12:46:08Z</time>
			</trkpt>
		
			<trkpt lat="44.643590" lon="8.132070">
			 <ele>650</ele>
			<time>2017-11-11T12:48:08Z</time>
			</trkpt>
		
			<trkpt lat="44.643610" lon="8.131980">
			 <ele>649</ele>
			<time>2017-11-11T12:50:08Z</time>
			</trkpt>
		
			<trkpt lat="44.643640" lon="8.131850">
			 <ele>648</ele>
			<time>2017-11-11T12:52:08Z</time>
			</trkpt>
		
			<trkpt lat="44.643650" lon="8.131780">
			 <ele>648</ele>
			<time>2017-11-11T12:54:08Z</time>
			</trkpt>
		
			<trkpt lat="44.643650" lon="8.131680">
			 <ele>646</ele>
			<time>2017-11-11T12:56:08Z</time>
			</trkpt>
		
			<trkpt lat="44.643660" lon="8.131590">
			 <ele>645</ele>
			<time>2017-11-11T12:58:08Z</time>
			</trkpt>
		
			<trkpt lat="44.643680" lon="8.131490">
			 <ele>644</ele>
			<time>2017-11-11T13:00:08Z</time>
			</trkpt>
		
			<trkpt lat="44.643690" lon="8.131450">
			 <ele>643</ele>
			<time>2017-11-11T13:02:08Z</time>
			</trkpt>
		
			<trkpt lat="44.643740" lon="8.131400">
			 <ele>644</ele>
			<time>2017-11-11T13:04:08Z</time>
			</trkpt>
		
			<trkpt lat="44.643780" lon="8.131360">
			 <ele>644</ele>
			<time>2017-11-11T13:06:08Z</time>
			</trkpt>
		
			<trkpt lat="44.643830" lon="8.131310">
			 <ele>645</ele>
			<time>2017-11-11T13:08:08Z</time>
			</trkpt>
		
			<trkpt lat="44.643970" lon="8.131180">
			 <ele>647</ele>
			<time>2017-11-11T13:10:08Z</time>
			</trkpt>
		
			<trkpt lat="44.644150" lon="8.130960">
			 <ele>649</ele>
			<time>2017-11-11T13:12:08Z</time>
			</trkpt>
		
			<trkpt lat="44.644350" lon="8.130690">
			 <ele>652</ele>
			<time>2017-11-11T13:14:08Z</time>
			</trkpt>
		
			<trkpt lat="44.644380" lon="8.130620">
			 <ele>653</ele>
			<time>2017-11-11T13:16:08Z</time>
			</trkpt>
		
			<trkpt lat="44.644390" lon="8.130570">
			 <ele>653</ele>
			<time>2017-11-11T13:18:08Z</time>
			</trkpt>
		
			<trkpt lat="44.644400" lon="8.130500">
			 <ele>653</ele>
			<time>2017-11-11T13:20:08Z</time>
			</trkpt>
		
			<trkpt lat="44.644400" lon="8.130410">
			 <ele>653</ele>
			<time>2017-11-11T13:22:08Z</time>
			</trkpt>
		
			<trkpt lat="44.644400" lon="8.130340">
			 <ele>652</ele>
			<time>2017-11-11T13:24:08Z</time>
			</trkpt>
		
			<trkpt lat="44.644400" lon="8.130320">
			 <ele>652</ele>
			<time>2017-11-11T13:26:08Z</time>
			</trkpt>
		
			<trkpt lat="44.644400" lon="8.130230">
			 <ele>652</ele>
			<time>2017-11-11T13:28:08Z</time>
			</trkpt>
		
			<trkpt lat="44.644390" lon="8.130150">
			 <ele>652</ele>
			<time>2017-11-11T13:30:08Z</time>
			</trkpt>
		
			<trkpt lat="44.644370" lon="8.130010">
			 <ele>651</ele>
			<time>2017-11-11T13:32:08Z</time>
			</trkpt>
		
			<trkpt lat="44.644360" lon="8.129920">
			 <ele>651</ele>
			<time>2017-11-11T13:34:08Z</time>
			</trkpt>
		
			<trkpt lat="44.644350" lon="8.129870">
			 <ele>652</ele>
			<time>2017-11-11T13:36:08Z</time>
			</trkpt>
		
			<trkpt lat="44.644330" lon="8.129790">
			 <ele>652</ele>
			<time>2017-11-11T13:38:08Z</time>
			</trkpt>
		
			<trkpt lat="44.644320" lon="8.129720">
			 <ele>653</ele>
			<time>2017-11-11T13:40:08Z</time>
			</trkpt>
		
			<trkpt lat="44.644300" lon="8.129620">
			 <ele>654</ele>
			<time>2017-11-11T13:42:08Z</time>
			</trkpt>
		
			<trkpt lat="44.644290" lon="8.129550">
			 <ele>655</ele>
			<time>2017-11-11T13:44:08Z</time>
			</trkpt>
		
			<trkpt lat="44.644270" lon="8.129480">
			 <ele>655</ele>
			<time>2017-11-11T13:46:08Z</time>
			</trkpt>
		
			<trkpt lat="44.644260" lon="8.129420">
			 <ele>656</ele>
			<time>2017-11-11T13:48:08Z</time>
			</trkpt>
		
			<trkpt lat="44.644240" lon="8.129390">
			 <ele>656</ele>
			<time>2017-11-11T13:50:08Z</time>
			</trkpt>
		
			<trkpt lat="44.644210" lon="8.129360">
			 <ele>656</ele>
			<time>2017-11-11T13:52:08Z</time>
			</trkpt>
		
			<trkpt lat="44.644170" lon="8.129330">
			 <ele>655</ele>
			<time>2017-11-11T13:54:08Z</time>
			</trkpt>
		
			<trkpt lat="44.644000" lon="8.129270">
			 <ele>653</ele>
			<time>2017-11-11T13:56:08Z</time>
			</trkpt>
		
			<trkpt lat="44.643780" lon="8.129170">
			 <ele>651</ele>
			<time>2017-11-11T13:58:08Z</time>
			</trkpt>
		
			<trkpt lat="44.643450" lon="8.128980">
			 <ele>649</ele>
			<time>2017-11-11T14:00:08Z</time>
			</trkpt>
		
			<trkpt lat="44.643260" lon="8.128900">
			 <ele>649</ele>
			<time>2017-11-11T14:02:08Z</time>
			</trkpt>
		
			<trkpt lat="44.643210" lon="8.128880">
			 <ele>649</ele>
			<time>2017-11-11T14:04:08Z</time>
			</trkpt>
		
			<trkpt lat="44.643150" lon="8.128880">
			 <ele>649</ele>
			<time>2017-11-11T14:06:08Z</time>
			</trkpt>
		
			<trkpt lat="44.643100" lon="8.128880">
			 <ele>648</ele>
			<time>2017-11-11T14:08:08Z</time>
			</trkpt>
		
			<trkpt lat="44.643050" lon="8.128880">
			 <ele>648</ele>
			<time>2017-11-11T14:10:08Z</time>
			</trkpt>
		
			<trkpt lat="44.642990" lon="8.128890">
			 <ele>647</ele>
			<time>2017-11-11T14:12:08Z</time>
			</trkpt>
		
			<trkpt lat="44.642920" lon="8.128900">
			 <ele>646</ele>
			<time>2017-11-11T14:14:08Z</time>
			</trkpt>
		
			<trkpt lat="44.642830" lon="8.128970">
			 <ele>644</ele>
			<time>2017-11-11T14:16:08Z</time>
			</trkpt>
		
			<trkpt lat="44.642770" lon="8.129010">
			 <ele>642</ele>
			<time>2017-11-11T14:18:08Z</time>
			</trkpt>
		
			<trkpt lat="44.642720" lon="8.129020">
			 <ele>642</ele>
			<time>2017-11-11T14:20:08Z</time>
			</trkpt>
		
			<trkpt lat="44.642680" lon="8.129020">
			 <ele>641</ele>
			<time>2017-11-11T14:22:08Z</time>
			</trkpt>
		
			<trkpt lat="44.642640" lon="8.128990">
			 <ele>642</ele>
			<time>2017-11-11T14:24:08Z</time>
			</trkpt>
		
			<trkpt lat="44.642610" lon="8.128960">
			 <ele>642</ele>
			<time>2017-11-11T14:26:08Z</time>
			</trkpt>
		
			<trkpt lat="44.642590" lon="8.128930">
			 <ele>642</ele>
			<time>2017-11-11T14:28:08Z</time>
			</trkpt>
		
			<trkpt lat="44.642560" lon="8.128880">
			 <ele>643</ele>
			<time>2017-11-11T14:30:08Z</time>
			</trkpt>
		
			<trkpt lat="44.642520" lon="8.128770">
			 <ele>645</ele>
			<time>2017-11-11T14:32:08Z</time>
			</trkpt>
		
			<trkpt lat="44.642500" lon="8.128700">
			 <ele>646</ele>
			<time>2017-11-11T14:34:08Z</time>
			</trkpt>
		
			<trkpt lat="44.642410" lon="8.128460">
			 <ele>648</ele>
			<time>2017-11-11T14:36:08Z</time>
			</trkpt>
		
			<trkpt lat="44.642370" lon="8.128380">
			 <ele>648</ele>
			<time>2017-11-11T14:38:08Z</time>
			</trkpt>
		
			<trkpt lat="44.642350" lon="8.128310">
			 <ele>648</ele>
			<time>2017-11-11T14:40:08Z</time>
			</trkpt>
		
			<trkpt lat="44.642360" lon="8.128210">
			 <ele>648</ele>
			<time>2017-11-11T14:42:08Z</time>
			</trkpt>
		
			<trkpt lat="44.642400" lon="8.128120">
			 <ele>650</ele>
			<time>2017-11-11T14:44:08Z</time>
			</trkpt>
		
			<trkpt lat="44.642430" lon="8.128030">
			 <ele>651</ele>
			<time>2017-11-11T14:46:08Z</time>
			</trkpt>
		
			<trkpt lat="44.642450" lon="8.127900">
			 <ele>652</ele>
			<time>2017-11-11T14:48:08Z</time>
			</trkpt>
		
			<trkpt lat="44.642480" lon="8.127730">
			 <ele>653</ele>
			<time>2017-11-11T14:50:08Z</time>
			</trkpt>
		
			<trkpt lat="44.642530" lon="8.127470">
			 <ele>655</ele>
			<time>2017-11-11T14:52:08Z</time>
			</trkpt>
		
			<trkpt lat="44.642580" lon="8.127220">
			 <ele>658</ele>
			<time>2017-11-11T14:54:08Z</time>
			</trkpt>
		
			<trkpt lat="44.642590" lon="8.127070">
			 <ele>659</ele>
			<time>2017-11-11T14:56:08Z</time>
			</trkpt>
		
			<trkpt lat="44.642590" lon="8.126940">
			 <ele>660</ele>
			<time>2017-11-11T14:58:08Z</time>
			</trkpt>
		
			<trkpt lat="44.642580" lon="8.126770">
			 <ele>660</ele>
			<time>2017-11-11T15:00:08Z</time>
			</trkpt>
		
			<trkpt lat="44.642570" lon="8.126620">
			 <ele>660</ele>
			<time>2017-11-11T15:02:08Z</time>
			</trkpt>
		
			<trkpt lat="44.642500" lon="8.126460">
			 <ele>659</ele>
			<time>2017-11-11T15:04:08Z</time>
			</trkpt>
		
			<trkpt lat="44.642460" lon="8.126360">
			 <ele>659</ele>
			<time>2017-11-11T15:06:08Z</time>
			</trkpt>
		
			<trkpt lat="44.642410" lon="8.126250">
			 <ele>658</ele>
			<time>2017-11-11T15:08:08Z</time>
			</trkpt>
		
			<trkpt lat="44.642320" lon="8.126080">
			 <ele>657</ele>
			<time>2017-11-11T15:10:08Z</time>
			</trkpt>
		
			<trkpt lat="44.642280" lon="8.126000">
			 <ele>656</ele>
			<time>2017-11-11T15:12:08Z</time>
			</trkpt>
		
			<trkpt lat="44.642270" lon="8.125890">
			 <ele>657</ele>
			<time>2017-11-11T15:14:08Z</time>
			</trkpt>
		
			<trkpt lat="44.642280" lon="8.125750">
			 <ele>658</ele>
			<time>2017-11-11T15:16:08Z</time>
			</trkpt>
		
			<trkpt lat="44.642290" lon="8.125650">
			 <ele>657</ele>
			<time>2017-11-11T15:18:08Z</time>
			</trkpt>
		
			<trkpt lat="44.642320" lon="8.125540">
			 <ele>657</ele>
			<time>2017-11-11T15:20:08Z</time>
			</trkpt>
		
			<trkpt lat="44.642330" lon="8.125420">
			 <ele>656</ele>
			<time>2017-11-11T15:22:08Z</time>
			</trkpt>
		
			<trkpt lat="44.642340" lon="8.125330">
			 <ele>655</ele>
			<time>2017-11-11T15:24:08Z</time>
			</trkpt>
		
			<trkpt lat="44.642340" lon="8.125230">
			 <ele>654</ele>
			<time>2017-11-11T15:26:08Z</time>
			</trkpt>
		
			<trkpt lat="44.642340" lon="8.125180">
			 <ele>653</ele>
			<time>2017-11-11T15:28:08Z</time>
			</trkpt>
		
			<trkpt lat="44.642340" lon="8.125110">
			 <ele>652</ele>
			<time>2017-11-11T15:30:08Z</time>
			</trkpt>
		
			<trkpt lat="44.642350" lon="8.125070">
			 <ele>652</ele>
			<time>2017-11-11T15:32:08Z</time>
			</trkpt>
		
			<trkpt lat="44.642360" lon="8.124990">
			 <ele>651</ele>
			<time>2017-11-11T15:34:08Z</time>
			</trkpt>
		
			<trkpt lat="44.642380" lon="8.124920">
			 <ele>651</ele>
			<time>2017-11-11T15:36:08Z</time>
			</trkpt>
		
			<trkpt lat="44.642410" lon="8.124860">
			 <ele>651</ele>
			<time>2017-11-11T15:38:08Z</time>
			</trkpt>
		
			<trkpt lat="44.642460" lon="8.124810">
			 <ele>651</ele>
			<time>2017-11-11T15:40:08Z</time>
			</trkpt>
		
			<trkpt lat="44.642530" lon="8.124750">
			 <ele>652</ele>
			<time>2017-11-11T15:42:08Z</time>
			</trkpt>
		
			<trkpt lat="44.642620" lon="8.124700">
			 <ele>654</ele>
			<time>2017-11-11T15:44:08Z</time>
			</trkpt>
		
			<trkpt lat="44.642900" lon="8.124530">
			 <ele>659</ele>
			<time>2017-11-11T15:46:08Z</time>
			</trkpt>
		
			<trkpt lat="44.643030" lon="8.124440">
			 <ele>661</ele>
			<time>2017-11-11T15:48:08Z</time>
			</trkpt>
		
			<trkpt lat="44.643110" lon="8.124370">
			 <ele>662</ele>
			<time>2017-11-11T15:50:08Z</time>
			</trkpt>
		
			<trkpt lat="44.643170" lon="8.124300">
			 <ele>663</ele>
			<time>2017-11-11T15:52:08Z</time>
			</trkpt>
		
			<trkpt lat="44.643230" lon="8.124190">
			 <ele>663</ele>
			<time>2017-11-11T15:54:08Z</time>
			</trkpt>
		
			<trkpt lat="44.643260" lon="8.124100">
			 <ele>664</ele>
			<time>2017-11-11T15:56:08Z</time>
			</trkpt>
		
			<trkpt lat="44.643290" lon="8.124020">
			 <ele>664</ele>
			<time>2017-11-11T15:58:08Z</time>
			</trkpt>
		
			<trkpt lat="44.643330" lon="8.123890">
			 <ele>665</ele>
			<time>2017-11-11T16:00:08Z</time>
			</trkpt>
		
			<trkpt lat="44.643340" lon="8.123830">
			 <ele>665</ele>
			<time>2017-11-11T16:02:08Z</time>
			</trkpt>
		
			<trkpt lat="44.643360" lon="8.123770">
			 <ele>666</ele>
			<time>2017-11-11T16:04:08Z</time>
			</trkpt>
		
			<trkpt lat="44.643370" lon="8.123710">
			 <ele>666</ele>
			<time>2017-11-11T16:06:08Z</time>
			</trkpt>
		
			<trkpt lat="44.643370" lon="8.123650">
			 <ele>666</ele>
			<time>2017-11-11T16:08:08Z</time>
			</trkpt>
		
			<trkpt lat="44.643380" lon="8.123600">
			 <ele>666</ele>
			<time>2017-11-11T16:10:08Z</time>
			</trkpt>
		
			<trkpt lat="44.643380" lon="8.123570">
			 <ele>666</ele>
			<time>2017-11-11T16:12:08Z</time>
			</trkpt>
		
			<trkpt lat="44.643370" lon="8.123530">
			 <ele>666</ele>
			<time>2017-11-11T16:14:08Z</time>
			</trkpt>
		
			<trkpt lat="44.643360" lon="8.123440">
			 <ele>665</ele>
			<time>2017-11-11T16:16:08Z</time>
			</trkpt>
		
			<trkpt lat="44.643330" lon="8.123340">
			 <ele>664</ele>
			<time>2017-11-11T16:18:08Z</time>
			</trkpt>
		
			<trkpt lat="44.643310" lon="8.123260">
			 <ele>663</ele>
			<time>2017-11-11T16:20:08Z</time>
			</trkpt>
		
			<trkpt lat="44.643290" lon="8.123200">
			 <ele>663</ele>
			<time>2017-11-11T16:22:08Z</time>
			</trkpt>
		
			<trkpt lat="44.643280" lon="8.123110">
			 <ele>663</ele>
			<time>2017-11-11T16:24:08Z</time>
			</trkpt>
		
			<trkpt lat="44.643280" lon="8.123060">
			 <ele>663</ele>
			<time>2017-11-11T16:26:08Z</time>
			</trkpt>
		
			<trkpt lat="44.643280" lon="8.123030">
			 <ele>663</ele>
			<time>2017-11-11T16:28:08Z</time>
			</trkpt>
		
			<trkpt lat="44.643280" lon="8.123000">
			 <ele>663</ele>
			<time>2017-11-11T16:30:08Z</time>
			</trkpt>
		
			<trkpt lat="44.643290" lon="8.122980">
			 <ele>664</ele>
			<time>2017-11-11T16:32:08Z</time>
			</trkpt>
		
			<trkpt lat="44.643300" lon="8.122930">
			 <ele>664</ele>
			<time>2017-11-11T16:34:08Z</time>
			</trkpt>
		
			<trkpt lat="44.643340" lon="8.122840">
			 <ele>665</ele>
			<time>2017-11-11T16:36:08Z</time>
			</trkpt>
		
			<trkpt lat="44.643370" lon="8.122790">
			 <ele>666</ele>
			<time>2017-11-11T16:38:08Z</time>
			</trkpt>
		
			<trkpt lat="44.643420" lon="8.122670">
			 <ele>668</ele>
			<time>2017-11-11T16:40:08Z</time>
			</trkpt>
		
			<trkpt lat="44.643450" lon="8.122580">
			 <ele>669</ele>
			<time>2017-11-11T16:42:08Z</time>
			</trkpt>
		
			<trkpt lat="44.643460" lon="8.122470">
			 <ele>670</ele>
			<time>2017-11-11T16:44:08Z</time>
			</trkpt>
		
			<trkpt lat="44.643460" lon="8.122400">
			 <ele>671</ele>
			<time>2017-11-11T16:46:08Z</time>
			</trkpt>
		
			<trkpt lat="44.643440" lon="8.122320">
			 <ele>671</ele>
			<time>2017-11-11T16:48:08Z</time>
			</trkpt>
		
			<trkpt lat="44.643410" lon="8.122240">
			 <ele>671</ele>
			<time>2017-11-11T16:50:08Z</time>
			</trkpt>
		
			<trkpt lat="44.643390" lon="8.122180">
			 <ele>672</ele>
			<time>2017-11-11T16:52:08Z</time>
			</trkpt>
		
			<trkpt lat="44.643360" lon="8.122110">
			 <ele>672</ele>
			<time>2017-11-11T16:54:08Z</time>
			</trkpt>
		
			<trkpt lat="44.643340" lon="8.122070">
			 <ele>672</ele>
			<time>2017-11-11T16:56:08Z</time>
			</trkpt>
		
			<trkpt lat="44.643310" lon="8.122030">
			 <ele>672</ele>
			<time>2017-11-11T16:58:08Z</time>
			</trkpt>
		
			<trkpt lat="44.643260" lon="8.121970">
			 <ele>673</ele>
			<time>2017-11-11T17:00:08Z</time>
			</trkpt>
		
			<trkpt lat="44.643220" lon="8.121940">
			 <ele>673</ele>
			<time>2017-11-11T17:02:08Z</time>
			</trkpt>
		
			<trkpt lat="44.643190" lon="8.121910">
			 <ele>673</ele>
			<time>2017-11-11T17:04:08Z</time>
			</trkpt>
		
			<trkpt lat="44.643150" lon="8.121890">
			 <ele>673</ele>
			<time>2017-11-11T17:06:08Z</time>
			</trkpt>
		
			<trkpt lat="44.643070" lon="8.121860">
			 <ele>673</ele>
			<time>2017-11-11T17:08:08Z</time>
			</trkpt>
		
			<trkpt lat="44.643010" lon="8.121850">
			 <ele>673</ele>
			<time>2017-11-11T17:10:08Z</time>
			</trkpt>
		
			<trkpt lat="44.642940" lon="8.121850">
			 <ele>672</ele>
			<time>2017-11-11T17:12:08Z</time>
			</trkpt>
		
			<trkpt lat="44.642900" lon="8.121850">
			 <ele>672</ele>
			<time>2017-11-11T17:14:08Z</time>
			</trkpt>
		
			<trkpt lat="44.642860" lon="8.121880">
			 <ele>671</ele>
			<time>2017-11-11T17:16:08Z</time>
			</trkpt>
		
			<trkpt lat="44.642840" lon="8.121900">
			 <ele>670</ele>
			<time>2017-11-11T17:18:08Z</time>
			</trkpt>
		
			<trkpt lat="44.642770" lon="8.121960">
			 <ele>668</ele>
			<time>2017-11-11T17:20:08Z</time>
			</trkpt>
		
			<trkpt lat="44.642740" lon="8.121970">
			 <ele>667</ele>
			<time>2017-11-11T17:22:08Z</time>
			</trkpt>
		
			<trkpt lat="44.642700" lon="8.121980">
			 <ele>667</ele>
			<time>2017-11-11T17:24:08Z</time>
			</trkpt>
		
			<trkpt lat="44.642650" lon="8.121980">
			 <ele>666</ele>
			<time>2017-11-11T17:26:08Z</time>
			</trkpt>
		
			<trkpt lat="44.642590" lon="8.121960">
			 <ele>666</ele>
			<time>2017-11-11T17:28:08Z</time>
			</trkpt>
		
			<trkpt lat="44.642530" lon="8.121940">
			 <ele>666</ele>
			<time>2017-11-11T17:30:08Z</time>
			</trkpt>
		
			<trkpt lat="44.642480" lon="8.121910">
			 <ele>667</ele>
			<time>2017-11-11T17:32:08Z</time>
			</trkpt>
		
			<trkpt lat="44.642420" lon="8.121890">
			 <ele>667</ele>
			<time>2017-11-11T17:34:08Z</time>
			</trkpt>
		
			<trkpt lat="44.642340" lon="8.121860">
			 <ele>668</ele>
			<time>2017-11-11T17:36:08Z</time>
			</trkpt>
		
			<trkpt lat="44.642260" lon="8.121850">
			 <ele>668</ele>
			<time>2017-11-11T17:38:08Z</time>
			</trkpt>
		
			<trkpt lat="44.642180" lon="8.121870">
			 <ele>667</ele>
			<time>2017-11-11T17:40:08Z</time>
			</trkpt>
		
			<trkpt lat="44.641880" lon="8.121950">
			 <ele>664</ele>
			<time>2017-11-11T17:42:08Z</time>
			</trkpt>
		
			<trkpt lat="44.641800" lon="8.121970">
			 <ele>663</ele>
			<time>2017-11-11T17:44:08Z</time>
			</trkpt>
		
			<trkpt lat="44.641740" lon="8.121980">
			 <ele>663</ele>
			<time>2017-11-11T17:46:08Z</time>
			</trkpt>
		
			<trkpt lat="44.641680" lon="8.121970">
			 <ele>663</ele>
			<time>2017-11-11T17:48:08Z</time>
			</trkpt>
		
			<trkpt lat="44.641630" lon="8.121950">
			 <ele>663</ele>
			<time>2017-11-11T17:50:08Z</time>
			</trkpt>
		
			<trkpt lat="44.641580" lon="8.121930">
			 <ele>663</ele>
			<time>2017-11-11T17:52:08Z</time>
			</trkpt>
		
			<trkpt lat="44.641520" lon="8.121900">
			 <ele>663</ele>
			<time>2017-11-11T17:54:08Z</time>
			</trkpt>
		
			<trkpt lat="44.641460" lon="8.121860">
			 <ele>664</ele>
			<time>2017-11-11T17:56:08Z</time>
			</trkpt>
		
			<trkpt lat="44.641400" lon="8.121850">
			 <ele>663</ele>
			<time>2017-11-11T17:58:08Z</time>
			</trkpt>
		
			<trkpt lat="44.641340" lon="8.121850">
			 <ele>662</ele>
			<time>2017-11-11T18:00:08Z</time>
			</trkpt>
		
			<trkpt lat="44.641160" lon="8.121830">
			 <ele>660</ele>
			<time>2017-11-11T18:02:08Z</time>
			</trkpt>
		
			<trkpt lat="44.641060" lon="8.121800">
			 <ele>659</ele>
			<time>2017-11-11T18:04:08Z</time>
			</trkpt>
		
			<trkpt lat="44.640990" lon="8.121760">
			 <ele>659</ele>
			<time>2017-11-11T18:06:08Z</time>
			</trkpt>
		
			<trkpt lat="44.640940" lon="8.121730">
			 <ele>659</ele>
			<time>2017-11-11T18:08:08Z</time>
			</trkpt>
		
			<trkpt lat="44.640880" lon="8.121690">
			 <ele>659</ele>
			<time>2017-11-11T18:10:08Z</time>
			</trkpt>
		
			<trkpt lat="44.640830" lon="8.121650">
			 <ele>659</ele>
			<time>2017-11-11T18:12:08Z</time>
			</trkpt>
		
			<trkpt lat="44.640780" lon="8.121590">
			 <ele>657</ele>
			<time>2017-11-11T18:14:08Z</time>
			</trkpt>
		
			<trkpt lat="44.640750" lon="8.121550">
			 <ele>657</ele>
			<time>2017-11-11T18:16:08Z</time>
			</trkpt>
		
			<trkpt lat="44.640730" lon="8.121500">
			 <ele>656</ele>
			<time>2017-11-11T18:18:08Z</time>
			</trkpt>
		
			<trkpt lat="44.640720" lon="8.121450">
			 <ele>655</ele>
			<time>2017-11-11T18:20:08Z</time>
			</trkpt>
		
			<trkpt lat="44.640720" lon="8.121380">
			 <ele>655</ele>
			<time>2017-11-11T18:22:08Z</time>
			</trkpt>
		
			<trkpt lat="44.640740" lon="8.121330">
			 <ele>655</ele>
			<time>2017-11-11T18:24:08Z</time>
			</trkpt>
		
			<trkpt lat="44.640770" lon="8.121270">
			 <ele>655</ele>
			<time>2017-11-11T18:26:08Z</time>
			</trkpt>
		
			<trkpt lat="44.640820" lon="8.121180">
			 <ele>656</ele>
			<time>2017-11-11T18:28:08Z</time>
			</trkpt>
		
			<trkpt lat="44.640930" lon="8.120950">
			 <ele>658</ele>
			<time>2017-11-11T18:30:08Z</time>
			</trkpt>
		
			<trkpt lat="44.641010" lon="8.120730">
			 <ele>659</ele>
			<time>2017-11-11T18:32:08Z</time>
			</trkpt>
		
			<trkpt lat="44.641030" lon="8.120660">
			 <ele>659</ele>
			<time>2017-11-11T18:34:08Z</time>
			</trkpt>
		
			<trkpt lat="44.641040" lon="8.120590">
			 <ele>659</ele>
			<time>2017-11-11T18:36:08Z</time>
			</trkpt>
		
			<trkpt lat="44.641040" lon="8.120550">
			 <ele>658</ele>
			<time>2017-11-11T18:38:08Z</time>
			</trkpt>
		
			<trkpt lat="44.641040" lon="8.120500">
			 <ele>658</ele>
			<time>2017-11-11T18:40:08Z</time>
			</trkpt>
		
			<trkpt lat="44.641030" lon="8.120440">
			 <ele>657</ele>
			<time>2017-11-11T18:42:08Z</time>
			</trkpt>
		
			<trkpt lat="44.641020" lon="8.120390">
			 <ele>656</ele>
			<time>2017-11-11T18:44:08Z</time>
			</trkpt>
		
			<trkpt lat="44.641010" lon="8.120340">
			 <ele>655</ele>
			<time>2017-11-11T18:46:08Z</time>
			</trkpt>
		
			<trkpt lat="44.641010" lon="8.120260">
			 <ele>654</ele>
			<time>2017-11-11T18:48:08Z</time>
			</trkpt>
		
			<trkpt lat="44.641010" lon="8.120190">
			 <ele>654</ele>
			<time>2017-11-11T18:50:08Z</time>
			</trkpt>
		
			<trkpt lat="44.641010" lon="8.120140">
			 <ele>653</ele>
			<time>2017-11-11T18:52:08Z</time>
			</trkpt>
		
			<trkpt lat="44.641010" lon="8.120110">
			 <ele>653</ele>
			<time>2017-11-11T18:54:08Z</time>
			</trkpt>
		
			<trkpt lat="44.641010" lon="8.120090">
			 <ele>653</ele>
			<time>2017-11-11T18:56:08Z</time>
			</trkpt>
		
			<trkpt lat="44.641020" lon="8.120070">
			 <ele>653</ele>
			<time>2017-11-11T18:58:08Z</time>
			</trkpt>
		
			<trkpt lat="44.641030" lon="8.120050">
			 <ele>653</ele>
			<time>2017-11-11T19:00:08Z</time>
			</trkpt>
		
			<trkpt lat="44.641030" lon="8.120040">
			 <ele>653</ele>
			<time>2017-11-11T19:02:08Z</time>
			</trkpt>
		
			<trkpt lat="44.641050" lon="8.120020">
			 <ele>653</ele>
			<time>2017-11-11T19:04:08Z</time>
			</trkpt>
		
			<trkpt lat="44.641060" lon="8.120000">
			 <ele>653</ele>
			<time>2017-11-11T19:06:08Z</time>
			</trkpt>
		
			<trkpt lat="44.641080" lon="8.119970">
			 <ele>654</ele>
			<time>2017-11-11T19:08:08Z</time>
			</trkpt>
		
			<trkpt lat="44.641110" lon="8.119930">
			 <ele>654</ele>
			<time>2017-11-11T19:10:08Z</time>
			</trkpt>
		
			<trkpt lat="44.641220" lon="8.119830">
			 <ele>656</ele>
			<time>2017-11-11T19:12:08Z</time>
			</trkpt>
		
			<trkpt lat="44.641270" lon="8.119780">
			 <ele>657</ele>
			<time>2017-11-11T19:14:08Z</time>
			</trkpt>
		
			<trkpt lat="44.641320" lon="8.119730">
			 <ele>657</ele>
			<time>2017-11-11T19:16:08Z</time>
			</trkpt>
		
			<trkpt lat="44.641360" lon="8.119650">
			 <ele>657</ele>
			<time>2017-11-11T19:18:08Z</time>
			</trkpt>
		
			<trkpt lat="44.641390" lon="8.119580">
			 <ele>657</ele>
			<time>2017-11-11T19:20:08Z</time>
			</trkpt>
		
			<trkpt lat="44.641400" lon="8.119530">
			 <ele>656</ele>
			<time>2017-11-11T19:22:08Z</time>
			</trkpt>
		
			<trkpt lat="44.641410" lon="8.119480">
			 <ele>656</ele>
			<time>2017-11-11T19:24:08Z</time>
			</trkpt>
		
			<trkpt lat="44.641430" lon="8.119400">
			 <ele>655</ele>
			<time>2017-11-11T19:26:08Z</time>
			</trkpt>
		
			<trkpt lat="44.641470" lon="8.119300">
			 <ele>654</ele>
			<time>2017-11-11T19:28:08Z</time>
			</trkpt>
		
			<trkpt lat="44.641490" lon="8.119240">
			 <ele>654</ele>
			<time>2017-11-11T19:30:08Z</time>
			</trkpt>
		
			<trkpt lat="44.641530" lon="8.119160">
			 <ele>653</ele>
			<time>2017-11-11T19:32:08Z</time>
			</trkpt>
		
			<trkpt lat="44.641640" lon="8.118990">
			 <ele>655</ele>
			<time>2017-11-11T19:34:08Z</time>
			</trkpt>
		
			<trkpt lat="44.641680" lon="8.118920">
			 <ele>655</ele>
			<time>2017-11-11T19:36:08Z</time>
			</trkpt>
		
			<trkpt lat="44.641700" lon="8.118880">
			 <ele>655</ele>
			<time>2017-11-11T19:38:08Z</time>
			</trkpt>
		
			<trkpt lat="44.641710" lon="8.118850">
			 <ele>655</ele>
			<time>2017-11-11T19:40:08Z</time>
			</trkpt>
		
			<trkpt lat="44.641710" lon="8.118820">
			 <ele>654</ele>
			<time>2017-11-11T19:42:08Z</time>
			</trkpt>
		
			<trkpt lat="44.641720" lon="8.118800">
			 <ele>654</ele>
			<time>2017-11-11T19:44:08Z</time>
			</trkpt>
		
			<trkpt lat="44.641720" lon="8.118760">
			 <ele>654</ele>
			<time>2017-11-11T19:46:08Z</time>
			</trkpt>
		
			<trkpt lat="44.641720" lon="8.118670">
			 <ele>653</ele>
			<time>2017-11-11T19:48:08Z</time>
			</trkpt>
		
			<trkpt lat="44.641720" lon="8.118580">
			 <ele>652</ele>
			<time>2017-11-11T19:50:08Z</time>
			</trkpt>
		
			<trkpt lat="44.641710" lon="8.118480">
			 <ele>651</ele>
			<time>2017-11-11T19:52:08Z</time>
			</trkpt>
		
			<trkpt lat="44.641700" lon="8.118350">
			 <ele>650</ele>
			<time>2017-11-11T19:54:08Z</time>
			</trkpt>
		
			<trkpt lat="44.641700" lon="8.118240">
			 <ele>650</ele>
			<time>2017-11-11T19:56:08Z</time>
			</trkpt>
		
			<trkpt lat="44.641690" lon="8.118140">
			 <ele>651</ele>
			<time>2017-11-11T19:58:08Z</time>
			</trkpt>
		
			<trkpt lat="44.641680" lon="8.118060">
			 <ele>651</ele>
			<time>2017-11-11T20:00:08Z</time>
			</trkpt>
		
			<trkpt lat="44.641660" lon="8.117970">
			 <ele>651</ele>
			<time>2017-11-11T20:02:08Z</time>
			</trkpt>
		
			<trkpt lat="44.641610" lon="8.117750">
			 <ele>651</ele>
			<time>2017-11-11T20:04:08Z</time>
			</trkpt>
		
			<trkpt lat="44.641480" lon="8.117340">
			 <ele>648</ele>
			<time>2017-11-11T20:06:08Z</time>
			</trkpt>
		
			<trkpt lat="44.641430" lon="8.117200">
			 <ele>647</ele>
			<time>2017-11-11T20:08:08Z</time>
			</trkpt>
		
			<trkpt lat="44.641400" lon="8.117120">
			 <ele>646</ele>
			<time>2017-11-11T20:10:08Z</time>
			</trkpt>
		
			<trkpt lat="44.641360" lon="8.117030">
			 <ele>645</ele>
			<time>2017-11-11T20:12:08Z</time>
			</trkpt>
		
			<trkpt lat="44.641320" lon="8.116950">
			 <ele>644</ele>
			<time>2017-11-11T20:14:08Z</time>
			</trkpt>
		
			<trkpt lat="44.641300" lon="8.116930">
			 <ele>643</ele>
			<time>2017-11-11T20:16:08Z</time>
			</trkpt>
		
			<trkpt lat="44.641300" lon="8.116890">
			 <ele>644</ele>
			<time>2017-11-11T20:18:08Z</time>
			</trkpt>
		
			<trkpt lat="44.641290" lon="8.116870">
			 <ele>643</ele>
			<time>2017-11-11T20:20:08Z</time>
			</trkpt>
		
			<trkpt lat="44.641290" lon="8.116840">
			 <ele>643</ele>
			<time>2017-11-11T20:22:08Z</time>
			</trkpt>
		
			<trkpt lat="44.641290" lon="8.116800">
			 <ele>644</ele>
			<time>2017-11-11T20:24:08Z</time>
			</trkpt>
		
			<trkpt lat="44.641290" lon="8.116740">
			 <ele>644</ele>
			<time>2017-11-11T20:26:08Z</time>
			</trkpt>
		
			<trkpt lat="44.641310" lon="8.116650">
			 <ele>645</ele>
			<time>2017-11-11T20:28:08Z</time>
			</trkpt>
		
			<trkpt lat="44.641320" lon="8.116480">
			 <ele>644</ele>
			<time>2017-11-11T20:30:08Z</time>
			</trkpt>
		
			<trkpt lat="44.641340" lon="8.116390">
			 <ele>644</ele>
			<time>2017-11-11T20:32:08Z</time>
			</trkpt>
		
			<trkpt lat="44.641370" lon="8.116270">
			 <ele>644</ele>
			<time>2017-11-11T20:34:08Z</time>
			</trkpt>
		
			<trkpt lat="44.641370" lon="8.116180">
			 <ele>644</ele>
			<time>2017-11-11T20:36:08Z</time>
			</trkpt>
		
			<trkpt lat="44.641380" lon="8.116040">
			 <ele>643</ele>
			<time>2017-11-11T20:38:08Z</time>
			</trkpt>
		
			<trkpt lat="44.641370" lon="8.115930">
			 <ele>642</ele>
			<time>2017-11-11T20:40:08Z</time>
			</trkpt>
		
			<trkpt lat="44.641370" lon="8.115790">
			 <ele>642</ele>
			<time>2017-11-11T20:42:08Z</time>
			</trkpt>
		
			<trkpt lat="44.641380" lon="8.115650">
			 <ele>641</ele>
			<time>2017-11-11T20:44:08Z</time>
			</trkpt>
		
			<trkpt lat="44.641390" lon="8.115500">
			 <ele>640</ele>
			<time>2017-11-11T20:46:08Z</time>
			</trkpt>
		
			<trkpt lat="44.641400" lon="8.115400">
			 <ele>640</ele>
			<time>2017-11-11T20:48:08Z</time>
			</trkpt>
		
			<trkpt lat="44.641410" lon="8.115310">
			 <ele>639</ele>
			<time>2017-11-11T20:50:08Z</time>
			</trkpt>
		
			<trkpt lat="44.641420" lon="8.115210">
			 <ele>639</ele>
			<time>2017-11-11T20:52:08Z</time>
			</trkpt>
		
			<trkpt lat="44.641440" lon="8.115120">
			 <ele>639</ele>
			<time>2017-11-11T20:54:08Z</time>
			</trkpt>
		
			<trkpt lat="44.641450" lon="8.114910">
			 <ele>638</ele>
			<time>2017-11-11T20:56:08Z</time>
			</trkpt>
		
			<trkpt lat="44.641470" lon="8.114770">
			 <ele>637</ele>
			<time>2017-11-11T20:58:08Z</time>
			</trkpt>
		
			<trkpt lat="44.641470" lon="8.114690">
			 <ele>637</ele>
			<time>2017-11-11T21:00:08Z</time>
			</trkpt>
		
			<trkpt lat="44.641470" lon="8.114640">
			 <ele>636</ele>
			<time>2017-11-11T21:02:08Z</time>
			</trkpt>
		
			<trkpt lat="44.641480" lon="8.114610">
			 <ele>637</ele>
			<time>2017-11-11T21:04:08Z</time>
			</trkpt>
		
			<trkpt lat="44.641490" lon="8.114560">
			 <ele>636</ele>
			<time>2017-11-11T21:06:08Z</time>
			</trkpt>
		
			<trkpt lat="44.641500" lon="8.114540">
			 <ele>637</ele>
			<time>2017-11-11T21:08:08Z</time>
			</trkpt>
		
			<trkpt lat="44.641530" lon="8.114500">
			 <ele>637</ele>
			<time>2017-11-11T21:10:08Z</time>
			</trkpt>
		
			<trkpt lat="44.641580" lon="8.114460">
			 <ele>638</ele>
			<time>2017-11-11T21:12:08Z</time>
			</trkpt>
		
			<trkpt lat="44.641610" lon="8.114430">
			 <ele>638</ele>
			<time>2017-11-11T21:14:08Z</time>
			</trkpt>
		
			<trkpt lat="44.641660" lon="8.114400">
			 <ele>639</ele>
			<time>2017-11-11T21:16:08Z</time>
			</trkpt>
		
			<trkpt lat="44.641710" lon="8.114380">
			 <ele>639</ele>
			<time>2017-11-11T21:18:08Z</time>
			</trkpt>
		
			<trkpt lat="44.641840" lon="8.114360">
			 <ele>639</ele>
			<time>2017-11-11T21:20:08Z</time>
			</trkpt>
		
			<trkpt lat="44.641910" lon="8.114350">
			 <ele>640</ele>
			<time>2017-11-11T21:22:08Z</time>
			</trkpt>
		
				</trkseg>
			   </trk>
			 </gpx>
	